<?xml version="1.0" encoding="UTF-8" standalone="no" ?>
<gpx xmlns="http://www.topografix.com/GPX/1/1" xmlns:xsi="http://www.w3.org/2001/XMLSchema-instance" xsi:schemaLocation="http://www.topografix.com/GPX/1/1 http://www.topografix.com/GPX/1/1/gpx.xsd" version="1.1" creator="VisuGPX - https://www.visugpx.com">
  <metadata>
    <name>Saint-Laurent-sous-Coiron 2</name>
  </metadata>
  <wpt lat="44.63719" lon="4.48056">
    <ele>558.3</ele>
    <name><![CDATA[Parking Monument aux Morts]]></name>
  </wpt>
  <wpt lat="44.64903" lon="4.49214">
    <ele>664</ele>
    <name><![CDATA[À gauche avant la barrière]]></name>
  </wpt>
  <wpt lat="44.65389" lon="4.4869">
    <ele>606.4</ele>
    <name><![CDATA[À gauche à la route]]></name>
  </wpt>
  <wpt lat="44.66304" lon="4.47851">
    <ele>567.4</ele>
    <name><![CDATA[Vers l'Ouest]]></name>
  </wpt>
  <wpt lat="44.65827" lon="4.47356">
    <ele>532</ele>
    <name><![CDATA[Menhir de Peyregrosse]]></name>
  </wpt>
  <wpt lat="44.65768" lon="4.47423">
    <ele>528.9</ele>
    <name><![CDATA[Menhir de Peyregrosse]]></name>
  </wpt>
  <wpt lat="44.65066" lon="4.46985">
    <ele>487.7</ele>
    <name><![CDATA[Dans virage à gauche]]></name>
    <type><![CDATA[ tourner à droite]]></type>
  </wpt>
  <wpt lat="44.66049" lon="4.4703">
    <ele>426.1</ele>
    <name><![CDATA[Ruisseau de Louyre]]></name>
  </wpt>
  <wpt lat="44.664" lon="4.4713">
    <ele>491.8</ele>
    <name><![CDATA[Croisement sentier]]></name>
    <type><![CDATA[ route]]></type>
  </wpt>
  <wpt lat="44.65989" lon="4.46553">
    <ele>553.1</ele>
    <name><![CDATA[Croisements]]></name>
    <type><![CDATA[ deux fois à gauche]]></type>
  </wpt>
  <wpt lat="44.64028" lon="4.45163">
    <ele>462.9</ele>
    <name><![CDATA[Croisement : à gauche]]></name>
  </wpt>
  <wpt lat="44.6368" lon="4.45342">
    <ele>433.3</ele>
    <name><![CDATA[Croisement : à gauche à 90°]]></name>
  </wpt>
  <wpt lat="44.63437" lon="4.46153">
    <ele>322.7</ele>
    <name><![CDATA[Franchissement du Ruisseau de Louyre]]></name>
  </wpt>
  <wpt lat="44.63535" lon="4.46261">
    <ele>355.6</ele>
    <name><![CDATA[Sentier à gauche]]></name>
    <type><![CDATA[ sous barre rocheuse]]></type>
  </wpt>
  <wpt lat="44.6366" lon="4.467">
    <ele>399.6</ele>
    <name><![CDATA[Croisement]]></name>
    <type><![CDATA[ tout droit en face]]></type>
  </wpt>
  <wpt lat="44.63743" lon="4.46995">
    <ele>406.3</ele>
    <name><![CDATA[En A/R]]></name>
    <type><![CDATA[ petite sente à gauche]]></type>
  </wpt>
  <wpt lat="44.6376" lon="4.47484">
    <ele>433.4</ele>
    <name><![CDATA[Virage en épingle]]></name>
    <type><![CDATA[ à gauche]]></type>
  </wpt>
  <wpt lat="44.63863" lon="4.48052">
    <ele>519</ele>
    <name><![CDATA[Croisement avec la RD 324]]></name>
    <type><![CDATA[ à gauche]]></type>
  </wpt>
  <wpt lat="44.63749" lon="4.48089">
    <ele>562.9</ele>
    <name><![CDATA[Parking Monument aux Morts]]></name>
  </wpt>
  <trk>
    <name><![CDATA[Saint-Laurent-sous-Coiron 2_1]]></name>
    <trkseg>
      <trkpt lat="44.63719" lon="4.48056">
        <ele>543</ele>
        <time>2020-10-12T10:53:18+02:00</time>
      </trkpt>
      <trkpt lat="44.63719" lon="4.48056">
        <ele>543</ele>
        <time>2020-10-12T10:53:18+02:00</time>
      </trkpt>
      <trkpt lat="44.63736" lon="4.48073">
        <ele>552</ele>
        <time>2020-10-12T10:53:23+02:00</time>
      </trkpt>
      <trkpt lat="44.63733" lon="4.48086">
        <ele>555</ele>
        <time>2020-10-12T10:53:28+02:00</time>
      </trkpt>
      <trkpt lat="44.63711" lon="4.4809">
        <ele>551</ele>
        <time>2020-10-12T10:53:33+02:00</time>
      </trkpt>
      <trkpt lat="44.63695" lon="4.48111">
        <ele>549</ele>
        <time>2020-10-12T10:53:38+02:00</time>
      </trkpt>
      <trkpt lat="44.63707" lon="4.48133">
        <ele>555</ele>
        <time>2020-10-12T10:53:43+02:00</time>
      </trkpt>
      <trkpt lat="44.63703" lon="4.48162">
        <ele>557</ele>
        <time>2020-10-12T10:53:48+02:00</time>
      </trkpt>
      <trkpt lat="44.63705" lon="4.48211">
        <ele>558</ele>
        <time>2020-10-12T10:53:53+02:00</time>
      </trkpt>
      <trkpt lat="44.6371" lon="4.48238">
        <ele>560</ele>
        <time>2020-10-12T10:53:58+02:00</time>
      </trkpt>
      <trkpt lat="44.63725" lon="4.48252">
        <ele>564</ele>
        <time>2020-10-12T10:54:03+02:00</time>
      </trkpt>
      <trkpt lat="44.63736" lon="4.48258">
        <ele>568</ele>
        <time>2020-10-12T10:54:08+02:00</time>
      </trkpt>
      <trkpt lat="44.63715" lon="4.48253">
        <ele>561</ele>
        <time>2020-10-12T10:54:13+02:00</time>
      </trkpt>
      <trkpt lat="44.63715" lon="4.4827">
        <ele>560</ele>
        <time>2020-10-12T10:54:18+02:00</time>
      </trkpt>
      <trkpt lat="44.63711" lon="4.48291">
        <ele>557</ele>
        <time>2020-10-12T10:54:23+02:00</time>
      </trkpt>
      <trkpt lat="44.63709" lon="4.48309">
        <ele>554</ele>
        <time>2020-10-12T10:54:28+02:00</time>
      </trkpt>
      <trkpt lat="44.63715" lon="4.48335">
        <ele>554</ele>
        <time>2020-10-12T10:54:33+02:00</time>
      </trkpt>
      <trkpt lat="44.63726" lon="4.48357">
        <ele>557</ele>
        <time>2020-10-12T10:54:38+02:00</time>
      </trkpt>
      <trkpt lat="44.63739" lon="4.48376">
        <ele>561</ele>
        <time>2020-10-12T10:54:43+02:00</time>
      </trkpt>
      <trkpt lat="44.63749" lon="4.48403">
        <ele>562</ele>
        <time>2020-10-12T10:54:48+02:00</time>
      </trkpt>
      <trkpt lat="44.63753" lon="4.48418">
        <ele>561</ele>
        <time>2020-10-12T10:54:53+02:00</time>
      </trkpt>
      <trkpt lat="44.63768" lon="4.48439">
        <ele>562</ele>
        <time>2020-10-12T10:54:58+02:00</time>
      </trkpt>
      <trkpt lat="44.63776" lon="4.48464">
        <ele>562</ele>
        <time>2020-10-12T10:55:03+02:00</time>
      </trkpt>
      <trkpt lat="44.63797" lon="4.48486">
        <ele>567</ele>
        <time>2020-10-12T10:55:08+02:00</time>
      </trkpt>
      <trkpt lat="44.63824" lon="4.48511">
        <ele>575</ele>
        <time>2020-10-12T10:55:13+02:00</time>
      </trkpt>
      <trkpt lat="44.6384" lon="4.48506">
        <ele>579</ele>
        <time>2020-10-12T10:55:18+02:00</time>
      </trkpt>
      <trkpt lat="44.63861" lon="4.48502">
        <ele>581</ele>
        <time>2020-10-12T10:55:23+02:00</time>
      </trkpt>
      <trkpt lat="44.63875" lon="4.48529">
        <ele>582</ele>
        <time>2020-10-12T10:55:28+02:00</time>
      </trkpt>
      <trkpt lat="44.63889" lon="4.48575">
        <ele>585</ele>
        <time>2020-10-12T10:55:33+02:00</time>
      </trkpt>
      <trkpt lat="44.63903" lon="4.48617">
        <ele>586</ele>
        <time>2020-10-12T10:55:38+02:00</time>
      </trkpt>
      <trkpt lat="44.63913" lon="4.4864">
        <ele>587</ele>
        <time>2020-10-12T10:55:43+02:00</time>
      </trkpt>
      <trkpt lat="44.63946" lon="4.48661">
        <ele>590</ele>
        <time>2020-10-12T10:55:48+02:00</time>
      </trkpt>
      <trkpt lat="44.63957" lon="4.48678">
        <ele>592</ele>
        <time>2020-10-12T10:55:53+02:00</time>
      </trkpt>
      <trkpt lat="44.63965" lon="4.48697">
        <ele>593</ele>
        <time>2020-10-12T10:55:58+02:00</time>
      </trkpt>
      <trkpt lat="44.63976" lon="4.48735">
        <ele>597</ele>
        <time>2020-10-12T10:56:03+02:00</time>
      </trkpt>
      <trkpt lat="44.63993" lon="4.4878">
        <ele>603</ele>
        <time>2020-10-12T10:56:08+02:00</time>
      </trkpt>
      <trkpt lat="44.64021" lon="4.48854">
        <ele>609</ele>
        <time>2020-10-12T10:56:13+02:00</time>
      </trkpt>
      <trkpt lat="44.64074" lon="4.48874">
        <ele>617</ele>
        <time>2020-10-12T10:56:18+02:00</time>
      </trkpt>
      <trkpt lat="44.64122" lon="4.4889">
        <ele>618</ele>
        <time>2020-10-12T10:56:23+02:00</time>
      </trkpt>
      <trkpt lat="44.6414" lon="4.48893">
        <ele>617</ele>
        <time>2020-10-12T10:56:28+02:00</time>
      </trkpt>
      <trkpt lat="44.64156" lon="4.48903">
        <ele>618</ele>
        <time>2020-10-12T10:56:33+02:00</time>
      </trkpt>
      <trkpt lat="44.64174" lon="4.48935">
        <ele>620</ele>
        <time>2020-10-12T10:56:38+02:00</time>
      </trkpt>
      <trkpt lat="44.64194" lon="4.48963">
        <ele>623</ele>
        <time>2020-10-12T10:56:43+02:00</time>
      </trkpt>
      <trkpt lat="44.64208" lon="4.48977">
        <ele>625</ele>
        <time>2020-10-12T10:56:48+02:00</time>
      </trkpt>
      <trkpt lat="44.64234" lon="4.48981">
        <ele>627</ele>
        <time>2020-10-12T10:56:53+02:00</time>
      </trkpt>
      <trkpt lat="44.64257" lon="4.4899">
        <ele>629</ele>
        <time>2020-10-12T10:56:58+02:00</time>
      </trkpt>
      <trkpt lat="44.64279" lon="4.48997">
        <ele>629</ele>
        <time>2020-10-12T10:57:03+02:00</time>
      </trkpt>
      <trkpt lat="44.64321" lon="4.49008">
        <ele>630</ele>
        <time>2020-10-12T10:57:08+02:00</time>
      </trkpt>
      <trkpt lat="44.64367" lon="4.49015">
        <ele>631</ele>
        <time>2020-10-12T10:57:13+02:00</time>
      </trkpt>
      <trkpt lat="44.64397" lon="4.49016">
        <ele>633</ele>
        <time>2020-10-12T10:57:18+02:00</time>
      </trkpt>
      <trkpt lat="44.64424" lon="4.4902">
        <ele>634</ele>
        <time>2020-10-12T10:57:23+02:00</time>
      </trkpt>
      <trkpt lat="44.64446" lon="4.49028">
        <ele>634</ele>
        <time>2020-10-12T10:57:28+02:00</time>
      </trkpt>
      <trkpt lat="44.64488" lon="4.49052">
        <ele>637</ele>
        <time>2020-10-12T10:57:33+02:00</time>
      </trkpt>
      <trkpt lat="44.64522" lon="4.49061">
        <ele>639</ele>
        <time>2020-10-12T10:57:38+02:00</time>
      </trkpt>
      <trkpt lat="44.64603" lon="4.49082">
        <ele>645</ele>
        <time>2020-10-12T10:57:43+02:00</time>
      </trkpt>
      <trkpt lat="44.64642" lon="4.49089">
        <ele>646</ele>
        <time>2020-10-12T10:57:48+02:00</time>
      </trkpt>
      <trkpt lat="44.64704" lon="4.49114">
        <ele>647</ele>
        <time>2020-10-12T10:57:53+02:00</time>
      </trkpt>
      <trkpt lat="44.64781" lon="4.49135">
        <ele>653</ele>
        <time>2020-10-12T10:57:58+02:00</time>
      </trkpt>
      <trkpt lat="44.64801" lon="4.4914">
        <ele>655</ele>
        <time>2020-10-12T10:58:03+02:00</time>
      </trkpt>
      <trkpt lat="44.64824" lon="4.49151">
        <ele>657</ele>
        <time>2020-10-12T10:58:08+02:00</time>
      </trkpt>
      <trkpt lat="44.64874" lon="4.49202">
        <ele>656</ele>
        <time>2020-10-12T10:58:13+02:00</time>
      </trkpt>
      <trkpt lat="44.64903" lon="4.49214">
        <ele>658</ele>
        <time>2020-10-12T10:58:18+02:00</time>
      </trkpt>
      <trkpt lat="44.64907" lon="4.49197">
        <ele>662</ele>
        <time>2020-10-12T10:58:23+02:00</time>
      </trkpt>
      <trkpt lat="44.64909" lon="4.49172">
        <ele>669</ele>
        <time>2020-10-12T10:58:28+02:00</time>
      </trkpt>
      <trkpt lat="44.64921" lon="4.49148">
        <ele>673</ele>
        <time>2020-10-12T10:58:33+02:00</time>
      </trkpt>
      <trkpt lat="44.64934" lon="4.49147">
        <ele>673</ele>
        <time>2020-10-12T10:58:38+02:00</time>
      </trkpt>
      <trkpt lat="44.64945" lon="4.49153">
        <ele>674</ele>
        <time>2020-10-12T10:58:43+02:00</time>
      </trkpt>
      <trkpt lat="44.64968" lon="4.49141">
        <ele>676</ele>
        <time>2020-10-12T10:58:48+02:00</time>
      </trkpt>
      <trkpt lat="44.64983" lon="4.49137">
        <ele>677</ele>
        <time>2020-10-12T10:58:53+02:00</time>
      </trkpt>
      <trkpt lat="44.64996" lon="4.49121">
        <ele>679</ele>
        <time>2020-10-12T10:58:58+02:00</time>
      </trkpt>
      <trkpt lat="44.64989" lon="4.49096">
        <ele>679</ele>
        <time>2020-10-12T10:59:03+02:00</time>
      </trkpt>
      <trkpt lat="44.64979" lon="4.49072">
        <ele>677</ele>
        <time>2020-10-12T10:59:08+02:00</time>
      </trkpt>
      <trkpt lat="44.64988" lon="4.49041">
        <ele>673</ele>
        <time>2020-10-12T10:59:13+02:00</time>
      </trkpt>
      <trkpt lat="44.64998" lon="4.49019">
        <ele>671</ele>
        <time>2020-10-12T10:59:18+02:00</time>
      </trkpt>
      <trkpt lat="44.65001" lon="4.48991">
        <ele>665</ele>
        <time>2020-10-12T10:59:23+02:00</time>
      </trkpt>
      <trkpt lat="44.65006" lon="4.48966">
        <ele>656</ele>
        <time>2020-10-12T10:59:28+02:00</time>
      </trkpt>
      <trkpt lat="44.65017" lon="4.48963">
        <ele>656</ele>
        <time>2020-10-12T10:59:33+02:00</time>
      </trkpt>
      <trkpt lat="44.65032" lon="4.48962">
        <ele>655</ele>
        <time>2020-10-12T10:59:38+02:00</time>
      </trkpt>
      <trkpt lat="44.65045" lon="4.48967">
        <ele>658</ele>
        <time>2020-10-12T10:59:43+02:00</time>
      </trkpt>
      <trkpt lat="44.65058" lon="4.48973">
        <ele>660</ele>
        <time>2020-10-12T10:59:48+02:00</time>
      </trkpt>
      <trkpt lat="44.65072" lon="4.48974">
        <ele>661</ele>
        <time>2020-10-12T10:59:53+02:00</time>
      </trkpt>
      <trkpt lat="44.65091" lon="4.48968">
        <ele>661</ele>
        <time>2020-10-12T10:59:58+02:00</time>
      </trkpt>
      <trkpt lat="44.65107" lon="4.48953">
        <ele>657</ele>
        <time>2020-10-12T11:00:03+02:00</time>
      </trkpt>
      <trkpt lat="44.65119" lon="4.48946">
        <ele>656</ele>
        <time>2020-10-12T11:00:08+02:00</time>
      </trkpt>
      <trkpt lat="44.65132" lon="4.48929">
        <ele>651</ele>
        <time>2020-10-12T11:00:13+02:00</time>
      </trkpt>
      <trkpt lat="44.65146" lon="4.48915">
        <ele>648</ele>
        <time>2020-10-12T11:00:18+02:00</time>
      </trkpt>
      <trkpt lat="44.65159" lon="4.48901">
        <ele>644</ele>
        <time>2020-10-12T11:00:23+02:00</time>
      </trkpt>
      <trkpt lat="44.65172" lon="4.48886">
        <ele>640</ele>
        <time>2020-10-12T11:00:28+02:00</time>
      </trkpt>
      <trkpt lat="44.65194" lon="4.48879">
        <ele>639</ele>
        <time>2020-10-12T11:00:33+02:00</time>
      </trkpt>
      <trkpt lat="44.65209" lon="4.48863">
        <ele>633</ele>
        <time>2020-10-12T11:00:38+02:00</time>
      </trkpt>
      <trkpt lat="44.6523" lon="4.48863">
        <ele>634</ele>
        <time>2020-10-12T11:00:43+02:00</time>
      </trkpt>
      <trkpt lat="44.65251" lon="4.48857">
        <ele>634</ele>
        <time>2020-10-12T11:00:48+02:00</time>
      </trkpt>
      <trkpt lat="44.65245" lon="4.48838">
        <ele>625</ele>
        <time>2020-10-12T11:00:53+02:00</time>
      </trkpt>
      <trkpt lat="44.65248" lon="4.48825">
        <ele>621</ele>
        <time>2020-10-12T11:00:58+02:00</time>
      </trkpt>
      <trkpt lat="44.65265" lon="4.48807">
        <ele>619</ele>
        <time>2020-10-12T11:01:03+02:00</time>
      </trkpt>
      <trkpt lat="44.6528" lon="4.48788">
        <ele>617</ele>
        <time>2020-10-12T11:01:08+02:00</time>
      </trkpt>
      <trkpt lat="44.65308" lon="4.48782">
        <ele>619</ele>
        <time>2020-10-12T11:01:13+02:00</time>
      </trkpt>
      <trkpt lat="44.65333" lon="4.4878">
        <ele>622</ele>
        <time>2020-10-12T11:01:18+02:00</time>
      </trkpt>
      <trkpt lat="44.65353" lon="4.48761">
        <ele>623</ele>
        <time>2020-10-12T11:01:23+02:00</time>
      </trkpt>
      <trkpt lat="44.65362" lon="4.48751">
        <ele>622</ele>
        <time>2020-10-12T11:01:28+02:00</time>
      </trkpt>
      <trkpt lat="44.65369" lon="4.48734">
        <ele>621</ele>
        <time>2020-10-12T11:01:33+02:00</time>
      </trkpt>
      <trkpt lat="44.6538" lon="4.4871">
        <ele>618</ele>
        <time>2020-10-12T11:01:38+02:00</time>
      </trkpt>
      <trkpt lat="44.65389" lon="4.4869">
        <ele>615</ele>
        <time>2020-10-12T11:01:43+02:00</time>
      </trkpt>
      <trkpt lat="44.65351" lon="4.48712">
        <ele>612</ele>
        <time>2020-10-12T11:01:48+02:00</time>
      </trkpt>
      <trkpt lat="44.65313" lon="4.48729">
        <ele>607</ele>
        <time>2020-10-12T11:01:53+02:00</time>
      </trkpt>
      <trkpt lat="44.65288" lon="4.4873">
        <ele>605</ele>
        <time>2020-10-12T11:01:58+02:00</time>
      </trkpt>
      <trkpt lat="44.65267" lon="4.48723">
        <ele>601</ele>
        <time>2020-10-12T11:02:03+02:00</time>
      </trkpt>
      <trkpt lat="44.65245" lon="4.48717">
        <ele>598</ele>
        <time>2020-10-12T11:02:08+02:00</time>
      </trkpt>
      <trkpt lat="44.65239" lon="4.48714">
        <ele>597</ele>
        <time>2020-10-12T11:02:13+02:00</time>
      </trkpt>
      <trkpt lat="44.6522" lon="4.48709">
        <ele>595</ele>
        <time>2020-10-12T11:02:18+02:00</time>
      </trkpt>
      <trkpt lat="44.65207" lon="4.48703">
        <ele>593</ele>
        <time>2020-10-12T11:02:23+02:00</time>
      </trkpt>
      <trkpt lat="44.65193" lon="4.48684">
        <ele>590</ele>
        <time>2020-10-12T11:02:28+02:00</time>
      </trkpt>
      <trkpt lat="44.65187" lon="4.4867">
        <ele>587</ele>
        <time>2020-10-12T11:02:33+02:00</time>
      </trkpt>
      <trkpt lat="44.65173" lon="4.48662">
        <ele>585</ele>
        <time>2020-10-12T11:02:38+02:00</time>
      </trkpt>
      <trkpt lat="44.65167" lon="4.48635">
        <ele>583</ele>
        <time>2020-10-12T11:02:43+02:00</time>
      </trkpt>
      <trkpt lat="44.65158" lon="4.48599">
        <ele>580</ele>
        <time>2020-10-12T11:02:48+02:00</time>
      </trkpt>
      <trkpt lat="44.65147" lon="4.48573">
        <ele>577</ele>
        <time>2020-10-12T11:02:53+02:00</time>
      </trkpt>
      <trkpt lat="44.65139" lon="4.48542">
        <ele>574</ele>
        <time>2020-10-12T11:02:58+02:00</time>
      </trkpt>
      <trkpt lat="44.65154" lon="4.48514">
        <ele>573</ele>
        <time>2020-10-12T11:03:03+02:00</time>
      </trkpt>
      <trkpt lat="44.65164" lon="4.48504">
        <ele>573</ele>
        <time>2020-10-12T11:03:08+02:00</time>
      </trkpt>
      <trkpt lat="44.6519" lon="4.48487">
        <ele>573</ele>
        <time>2020-10-12T11:03:13+02:00</time>
      </trkpt>
      <trkpt lat="44.65215" lon="4.48479">
        <ele>575</ele>
        <time>2020-10-12T11:03:18+02:00</time>
      </trkpt>
      <trkpt lat="44.65229" lon="4.4848">
        <ele>576</ele>
        <time>2020-10-12T11:03:23+02:00</time>
      </trkpt>
      <trkpt lat="44.65239" lon="4.48477">
        <ele>576</ele>
        <time>2020-10-12T11:03:28+02:00</time>
      </trkpt>
      <trkpt lat="44.65252" lon="4.48443">
        <ele>576</ele>
        <time>2020-10-12T11:03:33+02:00</time>
      </trkpt>
      <trkpt lat="44.65258" lon="4.48408">
        <ele>575</ele>
        <time>2020-10-12T11:03:38+02:00</time>
      </trkpt>
      <trkpt lat="44.6527" lon="4.48398">
        <ele>576</ele>
        <time>2020-10-12T11:03:43+02:00</time>
      </trkpt>
      <trkpt lat="44.65285" lon="4.48393">
        <ele>578</ele>
        <time>2020-10-12T11:03:48+02:00</time>
      </trkpt>
      <trkpt lat="44.65298" lon="4.48379">
        <ele>579</ele>
        <time>2020-10-12T11:03:53+02:00</time>
      </trkpt>
      <trkpt lat="44.65309" lon="4.48364">
        <ele>579</ele>
        <time>2020-10-12T11:03:58+02:00</time>
      </trkpt>
      <trkpt lat="44.65327" lon="4.48334">
        <ele>579</ele>
        <time>2020-10-12T11:04:03+02:00</time>
      </trkpt>
      <trkpt lat="44.65334" lon="4.48316">
        <ele>578</ele>
        <time>2020-10-12T11:04:08+02:00</time>
      </trkpt>
      <trkpt lat="44.65344" lon="4.48294">
        <ele>576</ele>
        <time>2020-10-12T11:04:13+02:00</time>
      </trkpt>
      <trkpt lat="44.65368" lon="4.48268">
        <ele>575</ele>
        <time>2020-10-12T11:04:18+02:00</time>
      </trkpt>
      <trkpt lat="44.65393" lon="4.48246">
        <ele>575</ele>
        <time>2020-10-12T11:04:23+02:00</time>
      </trkpt>
      <trkpt lat="44.65416" lon="4.48241">
        <ele>577</ele>
        <time>2020-10-12T11:04:28+02:00</time>
      </trkpt>
      <trkpt lat="44.65439" lon="4.4824">
        <ele>578</ele>
        <time>2020-10-12T11:04:33+02:00</time>
      </trkpt>
      <trkpt lat="44.65449" lon="4.48216">
        <ele>576</ele>
        <time>2020-10-12T11:04:38+02:00</time>
      </trkpt>
      <trkpt lat="44.6546" lon="4.4819">
        <ele>574</ele>
        <time>2020-10-12T11:04:43+02:00</time>
      </trkpt>
      <trkpt lat="44.65479" lon="4.48171">
        <ele>573</ele>
        <time>2020-10-12T11:04:48+02:00</time>
      </trkpt>
      <trkpt lat="44.65494" lon="4.48148">
        <ele>571</ele>
        <time>2020-10-12T11:04:53+02:00</time>
      </trkpt>
      <trkpt lat="44.65506" lon="4.48127">
        <ele>570</ele>
        <time>2020-10-12T11:04:58+02:00</time>
      </trkpt>
      <trkpt lat="44.65522" lon="4.48107">
        <ele>569</ele>
        <time>2020-10-12T11:05:03+02:00</time>
      </trkpt>
      <trkpt lat="44.65543" lon="4.48097">
        <ele>571</ele>
        <time>2020-10-12T11:05:08+02:00</time>
      </trkpt>
      <trkpt lat="44.6555" lon="4.48084">
        <ele>570</ele>
        <time>2020-10-12T11:05:13+02:00</time>
      </trkpt>
      <trkpt lat="44.65573" lon="4.48066">
        <ele>572</ele>
        <time>2020-10-12T11:05:18+02:00</time>
      </trkpt>
      <trkpt lat="44.65595" lon="4.48053">
        <ele>573</ele>
        <time>2020-10-12T11:05:23+02:00</time>
      </trkpt>
      <trkpt lat="44.65615" lon="4.48045">
        <ele>574</ele>
        <time>2020-10-12T11:05:28+02:00</time>
      </trkpt>
      <trkpt lat="44.65643" lon="4.48045">
        <ele>577</ele>
        <time>2020-10-12T11:05:33+02:00</time>
      </trkpt>
      <trkpt lat="44.65657" lon="4.4804">
        <ele>578</ele>
        <time>2020-10-12T11:05:38+02:00</time>
      </trkpt>
      <trkpt lat="44.65678" lon="4.48027">
        <ele>577</ele>
        <time>2020-10-12T11:05:43+02:00</time>
      </trkpt>
      <trkpt lat="44.65694" lon="4.48018">
        <ele>577</ele>
        <time>2020-10-12T11:05:48+02:00</time>
      </trkpt>
      <trkpt lat="44.65716" lon="4.4802">
        <ele>580</ele>
        <time>2020-10-12T11:05:53+02:00</time>
      </trkpt>
      <trkpt lat="44.65731" lon="4.48024">
        <ele>582</ele>
        <time>2020-10-12T11:05:58+02:00</time>
      </trkpt>
      <trkpt lat="44.65744" lon="4.48026">
        <ele>584</ele>
        <time>2020-10-12T11:06:03+02:00</time>
      </trkpt>
      <trkpt lat="44.65758" lon="4.48022">
        <ele>584</ele>
        <time>2020-10-12T11:06:08+02:00</time>
      </trkpt>
      <trkpt lat="44.65789" lon="4.48004">
        <ele>583</ele>
        <time>2020-10-12T11:06:13+02:00</time>
      </trkpt>
      <trkpt lat="44.65846" lon="4.4799">
        <ele>582</ele>
        <time>2020-10-12T11:06:18+02:00</time>
      </trkpt>
      <trkpt lat="44.65876" lon="4.47993">
        <ele>582</ele>
        <time>2020-10-12T11:06:23+02:00</time>
      </trkpt>
      <trkpt lat="44.65916" lon="4.48007">
        <ele>584</ele>
        <time>2020-10-12T11:06:28+02:00</time>
      </trkpt>
      <trkpt lat="44.65956" lon="4.48016">
        <ele>585</ele>
        <time>2020-10-12T11:06:33+02:00</time>
      </trkpt>
      <trkpt lat="44.65972" lon="4.48014">
        <ele>585</ele>
        <time>2020-10-12T11:06:38+02:00</time>
      </trkpt>
      <trkpt lat="44.65987" lon="4.48004">
        <ele>582</ele>
        <time>2020-10-12T11:06:43+02:00</time>
      </trkpt>
      <trkpt lat="44.66004" lon="4.47993">
        <ele>580</ele>
        <time>2020-10-12T11:06:48+02:00</time>
      </trkpt>
      <trkpt lat="44.66017" lon="4.47986">
        <ele>579</ele>
        <time>2020-10-12T11:06:53+02:00</time>
      </trkpt>
      <trkpt lat="44.66028" lon="4.47992">
        <ele>581</ele>
        <time>2020-10-12T11:06:58+02:00</time>
      </trkpt>
      <trkpt lat="44.6604" lon="4.47987">
        <ele>581</ele>
        <time>2020-10-12T11:07:03+02:00</time>
      </trkpt>
      <trkpt lat="44.66047" lon="4.47976">
        <ele>579</ele>
        <time>2020-10-12T11:07:08+02:00</time>
      </trkpt>
      <trkpt lat="44.6607" lon="4.47972">
        <ele>579</ele>
        <time>2020-10-12T11:07:13+02:00</time>
      </trkpt>
      <trkpt lat="44.66082" lon="4.47967">
        <ele>578</ele>
        <time>2020-10-12T11:07:18+02:00</time>
      </trkpt>
      <trkpt lat="44.66104" lon="4.4797">
        <ele>579</ele>
        <time>2020-10-12T11:07:23+02:00</time>
      </trkpt>
      <trkpt lat="44.6612" lon="4.47979">
        <ele>580</ele>
        <time>2020-10-12T11:07:28+02:00</time>
      </trkpt>
      <trkpt lat="44.66134" lon="4.47991">
        <ele>583</ele>
        <time>2020-10-12T11:07:33+02:00</time>
      </trkpt>
      <trkpt lat="44.66147" lon="4.47997">
        <ele>584</ele>
        <time>2020-10-12T11:07:38+02:00</time>
      </trkpt>
      <trkpt lat="44.66162" lon="4.4799">
        <ele>582</ele>
        <time>2020-10-12T11:07:43+02:00</time>
      </trkpt>
      <trkpt lat="44.66189" lon="4.47983">
        <ele>584</ele>
        <time>2020-10-12T11:07:48+02:00</time>
      </trkpt>
      <trkpt lat="44.66216" lon="4.47934">
        <ele>577</ele>
        <time>2020-10-12T11:07:53+02:00</time>
      </trkpt>
      <trkpt lat="44.66227" lon="4.47915">
        <ele>574</ele>
        <time>2020-10-12T11:07:58+02:00</time>
      </trkpt>
      <trkpt lat="44.66239" lon="4.47906">
        <ele>574</ele>
        <time>2020-10-12T11:08:03+02:00</time>
      </trkpt>
      <trkpt lat="44.66257" lon="4.47899">
        <ele>576</ele>
        <time>2020-10-12T11:08:08+02:00</time>
      </trkpt>
      <trkpt lat="44.66282" lon="4.47897">
        <ele>579</ele>
        <time>2020-10-12T11:08:13+02:00</time>
      </trkpt>
      <trkpt lat="44.66295" lon="4.47891">
        <ele>579</ele>
        <time>2020-10-12T11:08:18+02:00</time>
      </trkpt>
      <trkpt lat="44.6631" lon="4.47869">
        <ele>579</ele>
        <time>2020-10-12T11:08:23+02:00</time>
      </trkpt>
      <trkpt lat="44.66304" lon="4.47851">
        <ele>576</ele>
        <time>2020-10-12T11:08:28+02:00</time>
      </trkpt>
      <trkpt lat="44.66293" lon="4.4783">
        <ele>572</ele>
        <time>2020-10-12T11:08:33+02:00</time>
      </trkpt>
      <trkpt lat="44.66286" lon="4.47809">
        <ele>572</ele>
        <time>2020-10-12T11:08:38+02:00</time>
      </trkpt>
      <trkpt lat="44.66276" lon="4.47783">
        <ele>571</ele>
        <time>2020-10-12T11:08:43+02:00</time>
      </trkpt>
      <trkpt lat="44.66259" lon="4.47755">
        <ele>573.3</ele>
      </trkpt>
      <trkpt lat="44.66257" lon="4.47736">
        <ele>574.4</ele>
      </trkpt>
      <trkpt lat="44.66267" lon="4.47703">
        <ele>575</ele>
      </trkpt>
      <trkpt lat="44.6627" lon="4.47699">
        <ele>575</ele>
      </trkpt>
      <trkpt lat="44.66273" lon="4.47694">
        <ele>574.8</ele>
      </trkpt>
      <trkpt lat="44.66279" lon="4.47696">
        <ele>575.2</ele>
      </trkpt>
      <trkpt lat="44.66297" lon="4.477">
        <ele>576.1</ele>
      </trkpt>
      <trkpt lat="44.66308" lon="4.477">
        <ele>576.4</ele>
      </trkpt>
      <trkpt lat="44.66317" lon="4.47703">
        <ele>576.6</ele>
      </trkpt>
      <trkpt lat="44.66318" lon="4.47723">
        <ele>578.1</ele>
      </trkpt>
      <trkpt lat="44.66328" lon="4.47735">
        <ele>579.7</ele>
      </trkpt>
      <trkpt lat="44.66357" lon="4.47746">
        <ele>581.4</ele>
      </trkpt>
      <trkpt lat="44.66364" lon="4.4775">
        <ele>582.2</ele>
      </trkpt>
      <trkpt lat="44.66383" lon="4.47762">
        <ele>585</ele>
      </trkpt>
      <trkpt lat="44.6639" lon="4.47768">
        <ele>586</ele>
      </trkpt>
      <trkpt lat="44.66399" lon="4.47774">
        <ele>586.6</ele>
      </trkpt>
      <trkpt lat="44.66411" lon="4.47777">
        <ele>586.9</ele>
      </trkpt>
      <trkpt lat="44.66428" lon="4.47785">
        <ele>587.8</ele>
      </trkpt>
      <trkpt lat="44.66438" lon="4.4779">
        <ele>588.1</ele>
      </trkpt>
      <trkpt lat="44.6645" lon="4.47817">
        <ele>589.4</ele>
      </trkpt>
      <trkpt lat="44.66456" lon="4.47832">
        <ele>589.6</ele>
      </trkpt>
      <trkpt lat="44.66462" lon="4.47851">
        <ele>589.8</ele>
      </trkpt>
      <trkpt lat="44.66474" lon="4.47861">
        <ele>590</ele>
      </trkpt>
      <trkpt lat="44.66776" lon="4.47874">
        <ele>616.4</ele>
      </trkpt>
      <trkpt lat="44.66784" lon="4.47876">
        <ele>617</ele>
      </trkpt>
      <trkpt lat="44.66801" lon="4.47877">
        <ele>618.4</ele>
      </trkpt>
      <trkpt lat="44.66808" lon="4.47881">
        <ele>618.7</ele>
      </trkpt>
      <trkpt lat="44.66812" lon="4.47882">
        <ele>618.8</ele>
      </trkpt>
      <trkpt lat="44.66815" lon="4.47882">
        <ele>618.9</ele>
      </trkpt>
      <trkpt lat="44.66818" lon="4.4788">
        <ele>619.1</ele>
      </trkpt>
      <trkpt lat="44.66821" lon="4.47875">
        <ele>619.3</ele>
      </trkpt>
      <trkpt lat="44.66822" lon="4.4787">
        <ele>619.3</ele>
      </trkpt>
      <trkpt lat="44.66824" lon="4.47865">
        <ele>619.3</ele>
      </trkpt>
      <trkpt lat="44.66825" lon="4.47861">
        <ele>619.3</ele>
      </trkpt>
      <trkpt lat="44.66827" lon="4.47857">
        <ele>619.1</ele>
      </trkpt>
      <trkpt lat="44.66828" lon="4.47852">
        <ele>619</ele>
      </trkpt>
      <trkpt lat="44.66831" lon="4.47845">
        <ele>618.6</ele>
      </trkpt>
      <trkpt lat="44.66834" lon="4.47843">
        <ele>618.3</ele>
      </trkpt>
      <trkpt lat="44.66839" lon="4.47839">
        <ele>617.6</ele>
      </trkpt>
      <trkpt lat="44.66847" lon="4.47834">
        <ele>616.1</ele>
      </trkpt>
      <trkpt lat="44.66849" lon="4.47834">
        <ele>615.8</ele>
      </trkpt>
      <trkpt lat="44.66854" lon="4.47834">
        <ele>615.1</ele>
      </trkpt>
      <trkpt lat="44.66859" lon="4.47834">
        <ele>614.4</ele>
      </trkpt>
      <trkpt lat="44.66863" lon="4.47835">
        <ele>614.2</ele>
      </trkpt>
      <trkpt lat="44.66868" lon="4.47836">
        <ele>614</ele>
      </trkpt>
      <trkpt lat="44.66874" lon="4.47837">
        <ele>613.9</ele>
      </trkpt>
      <trkpt lat="44.66877" lon="4.47836">
        <ele>613.4</ele>
      </trkpt>
      <trkpt lat="44.66883" lon="4.47834">
        <ele>612.6</ele>
      </trkpt>
      <trkpt lat="44.66886" lon="4.47831">
        <ele>611.5</ele>
      </trkpt>
      <trkpt lat="44.66897" lon="4.4782">
        <ele>609.3</ele>
      </trkpt>
      <trkpt lat="44.66905" lon="4.47812">
        <ele>608.1</ele>
      </trkpt>
      <trkpt lat="44.66913" lon="4.47806">
        <ele>607.5</ele>
      </trkpt>
      <trkpt lat="44.66918" lon="4.478">
        <ele>606.3</ele>
      </trkpt>
      <trkpt lat="44.66922" lon="4.47796">
        <ele>605.7</ele>
      </trkpt>
      <trkpt lat="44.66924" lon="4.47794">
        <ele>605.4</ele>
      </trkpt>
      <trkpt lat="44.66923" lon="4.47793">
        <ele>604.8</ele>
      </trkpt>
      <trkpt lat="44.6692" lon="4.47792">
        <ele>603.8</ele>
      </trkpt>
      <trkpt lat="44.66911" lon="4.47793">
        <ele>602.5</ele>
      </trkpt>
      <trkpt lat="44.66904" lon="4.47792">
        <ele>600.8</ele>
      </trkpt>
      <trkpt lat="44.669" lon="4.47793">
        <ele>600.5</ele>
      </trkpt>
      <trkpt lat="44.66897" lon="4.47794">
        <ele>600.3</ele>
      </trkpt>
      <trkpt lat="44.66895" lon="4.47794">
        <ele>599.9</ele>
      </trkpt>
      <trkpt lat="44.66894" lon="4.47793">
        <ele>599.4</ele>
      </trkpt>
      <trkpt lat="44.66894" lon="4.47792">
        <ele>599</ele>
      </trkpt>
      <trkpt lat="44.66898" lon="4.47787">
        <ele>598</ele>
      </trkpt>
      <trkpt lat="44.66907" lon="4.47775">
        <ele>595.1</ele>
      </trkpt>
      <trkpt lat="44.66915" lon="4.47764">
        <ele>592.2</ele>
      </trkpt>
      <trkpt lat="44.66922" lon="4.47755">
        <ele>590.1</ele>
      </trkpt>
      <trkpt lat="44.66926" lon="4.4775">
        <ele>589</ele>
      </trkpt>
      <trkpt lat="44.66929" lon="4.47749">
        <ele>589.2</ele>
      </trkpt>
      <trkpt lat="44.66933" lon="4.47745">
        <ele>588.4</ele>
      </trkpt>
      <trkpt lat="44.66935" lon="4.47741">
        <ele>587.1</ele>
      </trkpt>
      <trkpt lat="44.66937" lon="4.47737">
        <ele>585.8</ele>
      </trkpt>
      <trkpt lat="44.6694" lon="4.47731">
        <ele>583.8</ele>
      </trkpt>
      <trkpt lat="44.66945" lon="4.47726">
        <ele>582.7</ele>
      </trkpt>
      <trkpt lat="44.66951" lon="4.47719">
        <ele>580.5</ele>
      </trkpt>
      <trkpt lat="44.66955" lon="4.47715">
        <ele>579.4</ele>
      </trkpt>
      <trkpt lat="44.6696" lon="4.47712">
        <ele>578.8</ele>
      </trkpt>
      <trkpt lat="44.66963" lon="4.47712">
        <ele>579.1</ele>
      </trkpt>
      <trkpt lat="44.66965" lon="4.4771">
        <ele>578.5</ele>
      </trkpt>
      <trkpt lat="44.66965" lon="4.47709">
        <ele>578.1</ele>
      </trkpt>
      <trkpt lat="44.66963" lon="4.47707">
        <ele>577.2</ele>
      </trkpt>
      <trkpt lat="44.66962" lon="4.47705">
        <ele>576.3</ele>
      </trkpt>
      <trkpt lat="44.66962" lon="4.47702">
        <ele>575.2</ele>
      </trkpt>
      <trkpt lat="44.66965" lon="4.477">
        <ele>574.6</ele>
      </trkpt>
      <trkpt lat="44.6697" lon="4.477">
        <ele>575</ele>
      </trkpt>
      <trkpt lat="44.66974" lon="4.47696">
        <ele>573.4</ele>
      </trkpt>
      <trkpt lat="44.66974" lon="4.47695">
        <ele>573</ele>
      </trkpt>
      <trkpt lat="44.66973" lon="4.47694">
        <ele>572.7</ele>
      </trkpt>
      <trkpt lat="44.66972" lon="4.47692">
        <ele>572</ele>
      </trkpt>
      <trkpt lat="44.66966" lon="4.4769">
        <ele>570.8</ele>
      </trkpt>
      <trkpt lat="44.6696" lon="4.47689">
        <ele>570</ele>
      </trkpt>
      <trkpt lat="44.66959" lon="4.47688">
        <ele>569.5</ele>
      </trkpt>
      <trkpt lat="44.66959" lon="4.47687">
        <ele>569.1</ele>
      </trkpt>
      <trkpt lat="44.6696" lon="4.47686">
        <ele>568.8</ele>
      </trkpt>
      <trkpt lat="44.66968" lon="4.47684">
        <ele>568.6</ele>
      </trkpt>
      <trkpt lat="44.66973" lon="4.47684">
        <ele>568.8</ele>
      </trkpt>
      <trkpt lat="44.66983" lon="4.47684">
        <ele>567.6</ele>
      </trkpt>
      <trkpt lat="44.66994" lon="4.47686">
        <ele>567.1</ele>
      </trkpt>
      <trkpt lat="44.66997" lon="4.47685">
        <ele>566.3</ele>
      </trkpt>
      <trkpt lat="44.66998" lon="4.47683">
        <ele>565.3</ele>
      </trkpt>
      <trkpt lat="44.66998" lon="4.47682">
        <ele>564.9</ele>
      </trkpt>
      <trkpt lat="44.66995" lon="4.47679">
        <ele>564</ele>
      </trkpt>
      <trkpt lat="44.66994" lon="4.47677">
        <ele>563.2</ele>
      </trkpt>
      <trkpt lat="44.66993" lon="4.47676">
        <ele>563</ele>
      </trkpt>
      <trkpt lat="44.66992" lon="4.47676">
        <ele>563.1</ele>
      </trkpt>
      <trkpt lat="44.66992" lon="4.47676">
        <ele>563.1</ele>
      </trkpt>
      <trkpt lat="44.66999" lon="4.47676">
        <ele>562.2</ele>
      </trkpt>
      <trkpt lat="44.67001" lon="4.47675">
        <ele>561.5</ele>
      </trkpt>
      <trkpt lat="44.67001" lon="4.47673">
        <ele>560.6</ele>
      </trkpt>
      <trkpt lat="44.66996" lon="4.47669">
        <ele>559.6</ele>
      </trkpt>
      <trkpt lat="44.66995" lon="4.47666">
        <ele>558.4</ele>
      </trkpt>
      <trkpt lat="44.66996" lon="4.47664">
        <ele>557.4</ele>
      </trkpt>
      <trkpt lat="44.67003" lon="4.47664">
        <ele>556.4</ele>
      </trkpt>
      <trkpt lat="44.67009" lon="4.47663">
        <ele>555.1</ele>
      </trkpt>
      <trkpt lat="44.67021" lon="4.47661">
        <ele>552.5</ele>
      </trkpt>
      <trkpt lat="44.67035" lon="4.47656">
        <ele>549.4</ele>
      </trkpt>
      <trkpt lat="44.67043" lon="4.47652">
        <ele>547.7</ele>
      </trkpt>
      <trkpt lat="44.67045" lon="4.47652">
        <ele>547.7</ele>
      </trkpt>
      <trkpt lat="44.67046" lon="4.47651">
        <ele>547.2</ele>
      </trkpt>
      <trkpt lat="44.67046" lon="4.4765">
        <ele>546.8</ele>
      </trkpt>
      <trkpt lat="44.67044" lon="4.47649">
        <ele>546.4</ele>
      </trkpt>
      <trkpt lat="44.67039" lon="4.47647">
        <ele>545.5</ele>
      </trkpt>
      <trkpt lat="44.67031" lon="4.47643">
        <ele>543.8</ele>
      </trkpt>
      <trkpt lat="44.67029" lon="4.47642">
        <ele>543.3</ele>
      </trkpt>
      <trkpt lat="44.67029" lon="4.47641">
        <ele>542.9</ele>
      </trkpt>
      <trkpt lat="44.67037" lon="4.47638">
        <ele>541.6</ele>
      </trkpt>
      <trkpt lat="44.67047" lon="4.47635">
        <ele>540.4</ele>
      </trkpt>
      <trkpt lat="44.67055" lon="4.47632">
        <ele>539.3</ele>
      </trkpt>
      <trkpt lat="44.67062" lon="4.4763">
        <ele>537.2</ele>
      </trkpt>
      <trkpt lat="44.67069" lon="4.4763">
        <ele>535.7</ele>
      </trkpt>
      <trkpt lat="44.67081" lon="4.47633">
        <ele>534.4</ele>
      </trkpt>
      <trkpt lat="44.67093" lon="4.4764">
        <ele>533.2</ele>
      </trkpt>
      <trkpt lat="44.67101" lon="4.47645">
        <ele>532</ele>
      </trkpt>
      <trkpt lat="44.6711" lon="4.47647">
        <ele>529.4</ele>
      </trkpt>
      <trkpt lat="44.67118" lon="4.47644">
        <ele>530.6</ele>
      </trkpt>
      <trkpt lat="44.67123" lon="4.47635">
        <ele>529.7</ele>
      </trkpt>
      <trkpt lat="44.67127" lon="4.47615">
        <ele>525.3</ele>
      </trkpt>
      <trkpt lat="44.67132" lon="4.47579">
        <ele>519.1</ele>
      </trkpt>
      <trkpt lat="44.67133" lon="4.47568">
        <ele>517</ele>
      </trkpt>
      <trkpt lat="44.67134" lon="4.47555">
        <ele>514.5</ele>
      </trkpt>
      <trkpt lat="44.67133" lon="4.47541">
        <ele>511.8</ele>
      </trkpt>
      <trkpt lat="44.67128" lon="4.47512">
        <ele>506</ele>
      </trkpt>
      <trkpt lat="44.67128" lon="4.47509">
        <ele>505.5</ele>
      </trkpt>
      <trkpt lat="44.67128" lon="4.47505">
        <ele>504.9</ele>
      </trkpt>
      <trkpt lat="44.67129" lon="4.47501">
        <ele>504.4</ele>
      </trkpt>
      <trkpt lat="44.67133" lon="4.47489">
        <ele>503.6</ele>
      </trkpt>
      <trkpt lat="44.67144" lon="4.47462">
        <ele>501.8</ele>
      </trkpt>
      <trkpt lat="44.67145" lon="4.47457">
        <ele>501.1</ele>
      </trkpt>
      <trkpt lat="44.67144" lon="4.47452">
        <ele>500.3</ele>
      </trkpt>
      <trkpt lat="44.67144" lon="4.4745">
        <ele>500</ele>
      </trkpt>
      <trkpt lat="44.67143" lon="4.47441">
        <ele>498.8</ele>
      </trkpt>
      <trkpt lat="44.67142" lon="4.47436">
        <ele>498.2</ele>
      </trkpt>
      <trkpt lat="44.6713" lon="4.47434">
        <ele>497</ele>
      </trkpt>
      <trkpt lat="44.6711" lon="4.47429">
        <ele>494.8</ele>
      </trkpt>
      <trkpt lat="44.67094" lon="4.47426">
        <ele>493.2</ele>
      </trkpt>
      <trkpt lat="44.6709" lon="4.47425">
        <ele>492.9</ele>
      </trkpt>
      <trkpt lat="44.67088" lon="4.47424">
        <ele>492.6</ele>
      </trkpt>
      <trkpt lat="44.67087" lon="4.47422">
        <ele>492.5</ele>
      </trkpt>
      <trkpt lat="44.67083" lon="4.47419">
        <ele>492.1</ele>
      </trkpt>
      <trkpt lat="44.67078" lon="4.47415">
        <ele>492.2</ele>
      </trkpt>
      <trkpt lat="44.67074" lon="4.47413">
        <ele>492.6</ele>
      </trkpt>
      <trkpt lat="44.67071" lon="4.47413">
        <ele>492.4</ele>
      </trkpt>
      <trkpt lat="44.67062" lon="4.47413">
        <ele>491.9</ele>
      </trkpt>
      <trkpt lat="44.67057" lon="4.47414">
        <ele>491.2</ele>
      </trkpt>
      <trkpt lat="44.67053" lon="4.47416">
        <ele>490.2</ele>
      </trkpt>
      <trkpt lat="44.67051" lon="4.47418">
        <ele>489.8</ele>
      </trkpt>
      <trkpt lat="44.6704" lon="4.47428">
        <ele>488.8</ele>
      </trkpt>
      <trkpt lat="44.67034" lon="4.47431">
        <ele>488.3</ele>
      </trkpt>
      <trkpt lat="44.67028" lon="4.47434">
        <ele>487.8</ele>
      </trkpt>
      <trkpt lat="44.67008" lon="4.47438">
        <ele>486</ele>
      </trkpt>
      <trkpt lat="44.67002" lon="4.47438">
        <ele>485.6</ele>
      </trkpt>
      <trkpt lat="44.66999" lon="4.47437">
        <ele>485.5</ele>
      </trkpt>
      <trkpt lat="44.66997" lon="4.47436">
        <ele>485.4</ele>
      </trkpt>
      <trkpt lat="44.66988" lon="4.47431">
        <ele>484.9</ele>
      </trkpt>
      <trkpt lat="44.6698" lon="4.47426">
        <ele>484.4</ele>
      </trkpt>
      <trkpt lat="44.66974" lon="4.47423">
        <ele>483.9</ele>
      </trkpt>
      <trkpt lat="44.66967" lon="4.47419">
        <ele>483.4</ele>
      </trkpt>
      <trkpt lat="44.66958" lon="4.47413">
        <ele>483.8</ele>
      </trkpt>
      <trkpt lat="44.66951" lon="4.4741">
        <ele>484</ele>
      </trkpt>
      <trkpt lat="44.66944" lon="4.47409">
        <ele>483.5</ele>
      </trkpt>
      <trkpt lat="44.66942" lon="4.4741">
        <ele>483.1</ele>
      </trkpt>
      <trkpt lat="44.66936" lon="4.47411">
        <ele>482.5</ele>
      </trkpt>
      <trkpt lat="44.66932" lon="4.47414">
        <ele>481.4</ele>
      </trkpt>
      <trkpt lat="44.66927" lon="4.47416">
        <ele>480.6</ele>
      </trkpt>
      <trkpt lat="44.66925" lon="4.47417">
        <ele>480.3</ele>
      </trkpt>
      <trkpt lat="44.66923" lon="4.47417">
        <ele>480.2</ele>
      </trkpt>
      <trkpt lat="44.6692" lon="4.47417">
        <ele>480.1</ele>
      </trkpt>
      <trkpt lat="44.66919" lon="4.47416">
        <ele>480.3</ele>
      </trkpt>
      <trkpt lat="44.66916" lon="4.47415">
        <ele>480.5</ele>
      </trkpt>
      <trkpt lat="44.66913" lon="4.47414">
        <ele>480.6</ele>
      </trkpt>
      <trkpt lat="44.66911" lon="4.47412">
        <ele>481</ele>
      </trkpt>
      <trkpt lat="44.669" lon="4.47404">
        <ele>482.4</ele>
      </trkpt>
      <trkpt lat="44.66893" lon="4.47402">
        <ele>482.1</ele>
      </trkpt>
      <trkpt lat="44.66888" lon="4.474">
        <ele>482</ele>
      </trkpt>
      <trkpt lat="44.66882" lon="4.47396">
        <ele>481.9</ele>
      </trkpt>
      <trkpt lat="44.66871" lon="4.47387">
        <ele>481.6</ele>
      </trkpt>
      <trkpt lat="44.66857" lon="4.47376">
        <ele>481.5</ele>
      </trkpt>
      <trkpt lat="44.6685" lon="4.47369">
        <ele>481.8</ele>
      </trkpt>
      <trkpt lat="44.66844" lon="4.47361">
        <ele>482.3</ele>
      </trkpt>
      <trkpt lat="44.6684" lon="4.47354">
        <ele>482.7</ele>
      </trkpt>
      <trkpt lat="44.66831" lon="4.4734">
        <ele>483.3</ele>
      </trkpt>
      <trkpt lat="44.66822" lon="4.47327">
        <ele>483.4</ele>
      </trkpt>
      <trkpt lat="44.66811" lon="4.47312">
        <ele>483.8</ele>
      </trkpt>
      <trkpt lat="44.66803" lon="4.47303">
        <ele>484.3</ele>
      </trkpt>
      <trkpt lat="44.66793" lon="4.47293">
        <ele>485.8</ele>
      </trkpt>
      <trkpt lat="44.66784" lon="4.47286">
        <ele>486.7</ele>
      </trkpt>
      <trkpt lat="44.66777" lon="4.4728">
        <ele>487.8</ele>
      </trkpt>
      <trkpt lat="44.66768" lon="4.47273">
        <ele>489.1</ele>
      </trkpt>
      <trkpt lat="44.66759" lon="4.47269">
        <ele>489</ele>
      </trkpt>
      <trkpt lat="44.66746" lon="4.47263">
        <ele>489</ele>
      </trkpt>
      <trkpt lat="44.66734" lon="4.47256">
        <ele>489.7</ele>
      </trkpt>
      <trkpt lat="44.66718" lon="4.47247">
        <ele>490.9</ele>
      </trkpt>
      <trkpt lat="44.66702" lon="4.47237">
        <ele>493.6</ele>
      </trkpt>
      <trkpt lat="44.66685" lon="4.47227">
        <ele>495.8</ele>
      </trkpt>
      <trkpt lat="44.66671" lon="4.4722">
        <ele>495.8</ele>
      </trkpt>
      <trkpt lat="44.66659" lon="4.47215">
        <ele>496.1</ele>
      </trkpt>
      <trkpt lat="44.66648" lon="4.47212">
        <ele>496.6</ele>
      </trkpt>
      <trkpt lat="44.6664" lon="4.47211">
        <ele>496.7</ele>
      </trkpt>
      <trkpt lat="44.6663" lon="4.47209">
        <ele>497.3</ele>
      </trkpt>
      <trkpt lat="44.66623" lon="4.47206">
        <ele>498.3</ele>
      </trkpt>
      <trkpt lat="44.66617" lon="4.47203">
        <ele>499.2</ele>
      </trkpt>
      <trkpt lat="44.66609" lon="4.47203">
        <ele>499.2</ele>
      </trkpt>
      <trkpt lat="44.66597" lon="4.472">
        <ele>500</ele>
      </trkpt>
      <trkpt lat="44.66586" lon="4.47197">
        <ele>501</ele>
      </trkpt>
      <trkpt lat="44.6656" lon="4.47193">
        <ele>501.6</ele>
      </trkpt>
      <trkpt lat="44.66535" lon="4.47187">
        <ele>500.4</ele>
      </trkpt>
      <trkpt lat="44.66526" lon="4.47185">
        <ele>499.8</ele>
      </trkpt>
      <trkpt lat="44.66516" lon="4.4718">
        <ele>500</ele>
      </trkpt>
      <trkpt lat="44.66509" lon="4.47177">
        <ele>499.9</ele>
      </trkpt>
      <trkpt lat="44.66499" lon="4.47172">
        <ele>500.1</ele>
      </trkpt>
      <trkpt lat="44.66487" lon="4.47168">
        <ele>499.3</ele>
      </trkpt>
      <trkpt lat="44.66481" lon="4.47166">
        <ele>498.7</ele>
      </trkpt>
      <trkpt lat="44.66478" lon="4.47164">
        <ele>498.6</ele>
      </trkpt>
      <trkpt lat="44.66474" lon="4.47162">
        <ele>498.3</ele>
      </trkpt>
      <trkpt lat="44.66469" lon="4.47157">
        <ele>498.6</ele>
      </trkpt>
      <trkpt lat="44.66465" lon="4.47154">
        <ele>498.7</ele>
      </trkpt>
      <trkpt lat="44.6646" lon="4.47153">
        <ele>498.2</ele>
      </trkpt>
      <trkpt lat="44.66454" lon="4.47153">
        <ele>497.3</ele>
      </trkpt>
      <trkpt lat="44.66447" lon="4.47151">
        <ele>496.8</ele>
      </trkpt>
      <trkpt lat="44.66442" lon="4.47148">
        <ele>496.6</ele>
      </trkpt>
      <trkpt lat="44.66428" lon="4.47141">
        <ele>495.1</ele>
      </trkpt>
      <trkpt lat="44.66418" lon="4.47135">
        <ele>493.7</ele>
      </trkpt>
      <trkpt lat="44.66411" lon="4.47133">
        <ele>492.9</ele>
      </trkpt>
      <trkpt lat="44.66406" lon="4.47132">
        <ele>492.4</ele>
      </trkpt>
      <trkpt lat="44.66404" lon="4.47131">
        <ele>492.2</ele>
      </trkpt>
      <trkpt lat="44.66402" lon="4.47131">
        <ele>492</ele>
      </trkpt>
      <trkpt lat="44.66401" lon="4.4713">
        <ele>491.9</ele>
      </trkpt>
      <trkpt lat="44.66396" lon="4.47136">
        <ele>490.9</ele>
      </trkpt>
      <trkpt lat="44.66394" lon="4.47141">
        <ele>490.3</ele>
      </trkpt>
      <trkpt lat="44.66394" lon="4.47141">
        <ele>491</ele>
        <time>2020-10-12T11:17:53+02:00</time>
      </trkpt>
      <trkpt lat="44.664" lon="4.4713">
        <ele>494</ele>
        <time>2020-10-12T11:17:58+02:00</time>
      </trkpt>
      <trkpt lat="44.66427" lon="4.4714">
        <ele>497</ele>
        <time>2020-10-12T11:18:03+02:00</time>
      </trkpt>
      <trkpt lat="44.66442" lon="4.47149">
        <ele>498</ele>
        <time>2020-10-12T11:18:08+02:00</time>
      </trkpt>
      <trkpt lat="44.66466" lon="4.47155">
        <ele>500</ele>
        <time>2020-10-12T11:18:13+02:00</time>
      </trkpt>
      <trkpt lat="44.66454" lon="4.47132">
        <ele>503</ele>
        <time>2020-10-12T11:18:18+02:00</time>
      </trkpt>
      <trkpt lat="44.66428" lon="4.47109">
        <ele>503</ele>
        <time>2020-10-12T11:18:23+02:00</time>
      </trkpt>
      <trkpt lat="44.66414" lon="4.47094">
        <ele>504</ele>
        <time>2020-10-12T11:18:28+02:00</time>
      </trkpt>
      <trkpt lat="44.66406" lon="4.47064">
        <ele>505</ele>
        <time>2020-10-12T11:18:33+02:00</time>
      </trkpt>
      <trkpt lat="44.66392" lon="4.47031">
        <ele>503</ele>
        <time>2020-10-12T11:18:38+02:00</time>
      </trkpt>
      <trkpt lat="44.6639" lon="4.47013">
        <ele>503</ele>
        <time>2020-10-12T11:18:43+02:00</time>
      </trkpt>
      <trkpt lat="44.66411" lon="4.46972">
        <ele>512</ele>
        <time>2020-10-12T11:18:48+02:00</time>
      </trkpt>
      <trkpt lat="44.66421" lon="4.46957">
        <ele>517</ele>
        <time>2020-10-12T11:18:53+02:00</time>
      </trkpt>
      <trkpt lat="44.66435" lon="4.46926">
        <ele>522</ele>
        <time>2020-10-12T11:18:58+02:00</time>
      </trkpt>
      <trkpt lat="44.66443" lon="4.46908">
        <ele>527</ele>
        <time>2020-10-12T11:19:03+02:00</time>
      </trkpt>
      <trkpt lat="44.66444" lon="4.46882">
        <ele>532</ele>
        <time>2020-10-12T11:19:08+02:00</time>
      </trkpt>
      <trkpt lat="44.66437" lon="4.46868">
        <ele>532</ele>
        <time>2020-10-12T11:19:13+02:00</time>
      </trkpt>
      <trkpt lat="44.66425" lon="4.4685">
        <ele>532</ele>
        <time>2020-10-12T11:19:18+02:00</time>
      </trkpt>
      <trkpt lat="44.66407" lon="4.4684">
        <ele>530</ele>
        <time>2020-10-12T11:19:23+02:00</time>
      </trkpt>
      <trkpt lat="44.66374" lon="4.46821">
        <ele>529</ele>
        <time>2020-10-12T11:19:28+02:00</time>
      </trkpt>
      <trkpt lat="44.66324" lon="4.46808">
        <ele>524</ele>
        <time>2020-10-12T11:19:33+02:00</time>
      </trkpt>
      <trkpt lat="44.66296" lon="4.46785">
        <ele>525</ele>
        <time>2020-10-12T11:19:38+02:00</time>
      </trkpt>
      <trkpt lat="44.6628" lon="4.46763">
        <ele>527</ele>
        <time>2020-10-12T11:19:43+02:00</time>
      </trkpt>
      <trkpt lat="44.66268" lon="4.46738">
        <ele>532</ele>
        <time>2020-10-12T11:19:48+02:00</time>
      </trkpt>
      <trkpt lat="44.66257" lon="4.4671">
        <ele>538</ele>
        <time>2020-10-12T11:19:53+02:00</time>
      </trkpt>
      <trkpt lat="44.66246" lon="4.467">
        <ele>540</ele>
        <time>2020-10-12T11:19:58+02:00</time>
      </trkpt>
      <trkpt lat="44.66235" lon="4.46695">
        <ele>541</ele>
        <time>2020-10-12T11:20:03+02:00</time>
      </trkpt>
      <trkpt lat="44.66224" lon="4.46694">
        <ele>540</ele>
        <time>2020-10-12T11:20:08+02:00</time>
      </trkpt>
      <trkpt lat="44.662" lon="4.467">
        <ele>536</ele>
        <time>2020-10-12T11:20:13+02:00</time>
      </trkpt>
      <trkpt lat="44.6618" lon="4.46707">
        <ele>532</ele>
        <time>2020-10-12T11:20:18+02:00</time>
      </trkpt>
      <trkpt lat="44.66161" lon="4.46711">
        <ele>529</ele>
        <time>2020-10-12T11:20:23+02:00</time>
      </trkpt>
      <trkpt lat="44.66137" lon="4.46708">
        <ele>531</ele>
        <time>2020-10-12T11:20:28+02:00</time>
      </trkpt>
      <trkpt lat="44.66114" lon="4.467">
        <ele>535</ele>
        <time>2020-10-12T11:20:33+02:00</time>
      </trkpt>
      <trkpt lat="44.66083" lon="4.46691">
        <ele>539</ele>
        <time>2020-10-12T11:20:38+02:00</time>
      </trkpt>
      <trkpt lat="44.66062" lon="4.4667">
        <ele>542</ele>
        <time>2020-10-12T11:20:43+02:00</time>
      </trkpt>
      <trkpt lat="44.66046" lon="4.46654">
        <ele>543</ele>
        <time>2020-10-12T11:20:48+02:00</time>
      </trkpt>
      <trkpt lat="44.66029" lon="4.46629">
        <ele>544</ele>
        <time>2020-10-12T11:20:53+02:00</time>
      </trkpt>
      <trkpt lat="44.66008" lon="4.4659">
        <ele>549</ele>
        <time>2020-10-12T11:20:58+02:00</time>
      </trkpt>
      <trkpt lat="44.65996" lon="4.46572">
        <ele>549</ele>
        <time>2020-10-12T11:21:03+02:00</time>
      </trkpt>
      <trkpt lat="44.65989" lon="4.46553">
        <ele>549</ele>
        <time>2020-10-12T11:21:08+02:00</time>
      </trkpt>
      <trkpt lat="44.65984" lon="4.46539">
        <ele>549</ele>
        <time>2020-10-12T11:21:13+02:00</time>
      </trkpt>
      <trkpt lat="44.65971" lon="4.46527">
        <ele>549</ele>
        <time>2020-10-12T11:21:18+02:00</time>
      </trkpt>
      <trkpt lat="44.65907" lon="4.46487">
        <ele>554</ele>
        <time>2020-10-12T11:21:23+02:00</time>
      </trkpt>
      <trkpt lat="44.65894" lon="4.46484">
        <ele>554</ele>
        <time>2020-10-12T11:21:28+02:00</time>
      </trkpt>
      <trkpt lat="44.65881" lon="4.46493">
        <ele>555</ele>
        <time>2020-10-12T11:21:33+02:00</time>
      </trkpt>
      <trkpt lat="44.65869" lon="4.46495">
        <ele>555</ele>
        <time>2020-10-12T11:21:38+02:00</time>
      </trkpt>
      <trkpt lat="44.65834" lon="4.46484">
        <ele>556</ele>
        <time>2020-10-12T11:21:43+02:00</time>
      </trkpt>
      <trkpt lat="44.65822" lon="4.46475">
        <ele>555</ele>
        <time>2020-10-12T11:21:48+02:00</time>
      </trkpt>
      <trkpt lat="44.65808" lon="4.46467">
        <ele>555</ele>
        <time>2020-10-12T11:21:53+02:00</time>
      </trkpt>
      <trkpt lat="44.6579" lon="4.46462">
        <ele>553</ele>
        <time>2020-10-12T11:21:58+02:00</time>
      </trkpt>
      <trkpt lat="44.6577" lon="4.4646">
        <ele>552</ele>
        <time>2020-10-12T11:22:03+02:00</time>
      </trkpt>
      <trkpt lat="44.65751" lon="4.46453">
        <ele>550</ele>
        <time>2020-10-12T11:22:08+02:00</time>
      </trkpt>
      <trkpt lat="44.65733" lon="4.46444">
        <ele>548</ele>
        <time>2020-10-12T11:22:13+02:00</time>
      </trkpt>
      <trkpt lat="44.65717" lon="4.46431">
        <ele>547</ele>
        <time>2020-10-12T11:22:18+02:00</time>
      </trkpt>
      <trkpt lat="44.65706" lon="4.46421">
        <ele>547</ele>
        <time>2020-10-12T11:22:23+02:00</time>
      </trkpt>
      <trkpt lat="44.65692" lon="4.46411">
        <ele>545</ele>
        <time>2020-10-12T11:22:28+02:00</time>
      </trkpt>
      <trkpt lat="44.65602" lon="4.46359">
        <ele>531</ele>
        <time>2020-10-12T11:22:33+02:00</time>
      </trkpt>
      <trkpt lat="44.65579" lon="4.46348">
        <ele>530</ele>
        <time>2020-10-12T11:22:38+02:00</time>
      </trkpt>
      <trkpt lat="44.65554" lon="4.46339">
        <ele>531</ele>
        <time>2020-10-12T11:22:43+02:00</time>
      </trkpt>
      <trkpt lat="44.65527" lon="4.46349">
        <ele>531</ele>
        <time>2020-10-12T11:22:48+02:00</time>
      </trkpt>
      <trkpt lat="44.6549" lon="4.46342">
        <ele>530</ele>
        <time>2020-10-12T11:22:53+02:00</time>
      </trkpt>
      <trkpt lat="44.6547" lon="4.46333">
        <ele>526</ele>
        <time>2020-10-12T11:22:58+02:00</time>
      </trkpt>
      <trkpt lat="44.65451" lon="4.46342">
        <ele>523</ele>
        <time>2020-10-12T11:23:03+02:00</time>
      </trkpt>
      <trkpt lat="44.65435" lon="4.4636">
        <ele>521</ele>
        <time>2020-10-12T11:23:08+02:00</time>
      </trkpt>
      <trkpt lat="44.65407" lon="4.4638">
        <ele>516</ele>
        <time>2020-10-12T11:23:13+02:00</time>
      </trkpt>
      <trkpt lat="44.65347" lon="4.46394">
        <ele>501</ele>
        <time>2020-10-12T11:23:18+02:00</time>
      </trkpt>
      <trkpt lat="44.65316" lon="4.46394">
        <ele>494</ele>
        <time>2020-10-12T11:23:23+02:00</time>
      </trkpt>
      <trkpt lat="44.65303" lon="4.46385">
        <ele>492</ele>
        <time>2020-10-12T11:23:28+02:00</time>
      </trkpt>
      <trkpt lat="44.65279" lon="4.46387">
        <ele>489</ele>
        <time>2020-10-12T11:23:33+02:00</time>
      </trkpt>
      <trkpt lat="44.65264" lon="4.46385">
        <ele>487</ele>
        <time>2020-10-12T11:23:38+02:00</time>
      </trkpt>
      <trkpt lat="44.65245" lon="4.46383">
        <ele>484</ele>
        <time>2020-10-12T11:23:43+02:00</time>
      </trkpt>
      <trkpt lat="44.65228" lon="4.4637">
        <ele>483</ele>
        <time>2020-10-12T11:23:48+02:00</time>
      </trkpt>
      <trkpt lat="44.65213" lon="4.46353">
        <ele>483</ele>
        <time>2020-10-12T11:23:53+02:00</time>
      </trkpt>
      <trkpt lat="44.65183" lon="4.46323">
        <ele>483</ele>
        <time>2020-10-12T11:23:58+02:00</time>
      </trkpt>
      <trkpt lat="44.65154" lon="4.46311">
        <ele>480</ele>
        <time>2020-10-12T11:24:03+02:00</time>
      </trkpt>
      <trkpt lat="44.65115" lon="4.46285">
        <ele>475</ele>
        <time>2020-10-12T11:24:08+02:00</time>
      </trkpt>
      <trkpt lat="44.6509" lon="4.46288">
        <ele>475</ele>
        <time>2020-10-12T11:24:13+02:00</time>
      </trkpt>
      <trkpt lat="44.65071" lon="4.46289">
        <ele>473</ele>
        <time>2020-10-12T11:24:18+02:00</time>
      </trkpt>
      <trkpt lat="44.65039" lon="4.46263">
        <ele>472</ele>
        <time>2020-10-12T11:24:23+02:00</time>
      </trkpt>
      <trkpt lat="44.65021" lon="4.46253">
        <ele>472</ele>
        <time>2020-10-12T11:24:28+02:00</time>
      </trkpt>
      <trkpt lat="44.65002" lon="4.4625">
        <ele>472</ele>
        <time>2020-10-12T11:24:33+02:00</time>
      </trkpt>
      <trkpt lat="44.6498" lon="4.46228">
        <ele>468</ele>
        <time>2020-10-12T11:24:38+02:00</time>
      </trkpt>
      <trkpt lat="44.6496" lon="4.46202">
        <ele>465</ele>
        <time>2020-10-12T11:24:43+02:00</time>
      </trkpt>
      <trkpt lat="44.64935" lon="4.46163">
        <ele>465</ele>
        <time>2020-10-12T11:24:48+02:00</time>
      </trkpt>
      <trkpt lat="44.64912" lon="4.4612">
        <ele>469</ele>
        <time>2020-10-12T11:24:53+02:00</time>
      </trkpt>
      <trkpt lat="44.64882" lon="4.46073">
        <ele>472</ele>
        <time>2020-10-12T11:24:58+02:00</time>
      </trkpt>
      <trkpt lat="44.64871" lon="4.46056">
        <ele>473</ele>
        <time>2020-10-12T11:25:03+02:00</time>
      </trkpt>
      <trkpt lat="44.64858" lon="4.46043">
        <ele>475</ele>
        <time>2020-10-12T11:25:08+02:00</time>
      </trkpt>
      <trkpt lat="44.64841" lon="4.46037">
        <ele>478</ele>
        <time>2020-10-12T11:25:13+02:00</time>
      </trkpt>
      <trkpt lat="44.64831" lon="4.46007">
        <ele>483</ele>
        <time>2020-10-12T11:25:18+02:00</time>
      </trkpt>
      <trkpt lat="44.64824" lon="4.45969">
        <ele>486</ele>
        <time>2020-10-12T11:25:23+02:00</time>
      </trkpt>
      <trkpt lat="44.64814" lon="4.45932">
        <ele>490</ele>
        <time>2020-10-12T11:25:28+02:00</time>
      </trkpt>
      <trkpt lat="44.64807" lon="4.45856">
        <ele>495</ele>
        <time>2020-10-12T11:25:33+02:00</time>
      </trkpt>
      <trkpt lat="44.64806" lon="4.45823">
        <ele>496</ele>
        <time>2020-10-12T11:25:38+02:00</time>
      </trkpt>
      <trkpt lat="44.64808" lon="4.45798">
        <ele>496</ele>
        <time>2020-10-12T11:25:43+02:00</time>
      </trkpt>
      <trkpt lat="44.64806" lon="4.45774">
        <ele>496</ele>
        <time>2020-10-12T11:25:48+02:00</time>
      </trkpt>
      <trkpt lat="44.64791" lon="4.45691">
        <ele>502</ele>
        <time>2020-10-12T11:25:53+02:00</time>
      </trkpt>
      <trkpt lat="44.64775" lon="4.45663">
        <ele>505</ele>
        <time>2020-10-12T11:25:58+02:00</time>
      </trkpt>
      <trkpt lat="44.64734" lon="4.45632">
        <ele>508</ele>
        <time>2020-10-12T11:26:03+02:00</time>
      </trkpt>
      <trkpt lat="44.64711" lon="4.4562">
        <ele>510</ele>
        <time>2020-10-12T11:26:08+02:00</time>
      </trkpt>
      <trkpt lat="44.64685" lon="4.45613">
        <ele>514</ele>
        <time>2020-10-12T11:26:13+02:00</time>
      </trkpt>
      <trkpt lat="44.64656" lon="4.45613">
        <ele>518</ele>
        <time>2020-10-12T11:26:18+02:00</time>
      </trkpt>
      <trkpt lat="44.64635" lon="4.45617">
        <ele>518</ele>
        <time>2020-10-12T11:26:23+02:00</time>
      </trkpt>
      <trkpt lat="44.64619" lon="4.45616">
        <ele>518</ele>
        <time>2020-10-12T11:26:28+02:00</time>
      </trkpt>
      <trkpt lat="44.6461" lon="4.45627">
        <ele>517</ele>
        <time>2020-10-12T11:26:33+02:00</time>
      </trkpt>
      <trkpt lat="44.646" lon="4.45635">
        <ele>515</ele>
        <time>2020-10-12T11:26:38+02:00</time>
      </trkpt>
      <trkpt lat="44.64582" lon="4.4564">
        <ele>514</ele>
        <time>2020-10-12T11:26:43+02:00</time>
      </trkpt>
      <trkpt lat="44.64562" lon="4.45655">
        <ele>512</ele>
        <time>2020-10-12T11:26:48+02:00</time>
      </trkpt>
      <trkpt lat="44.64544" lon="4.45669">
        <ele>510</ele>
        <time>2020-10-12T11:26:53+02:00</time>
      </trkpt>
      <trkpt lat="44.64527" lon="4.45691">
        <ele>507</ele>
        <time>2020-10-12T11:26:58+02:00</time>
      </trkpt>
      <trkpt lat="44.64492" lon="4.45708">
        <ele>504</ele>
        <time>2020-10-12T11:27:03+02:00</time>
      </trkpt>
      <trkpt lat="44.64447" lon="4.45706">
        <ele>506</ele>
        <time>2020-10-12T11:27:08+02:00</time>
      </trkpt>
      <trkpt lat="44.64349" lon="4.45768">
        <ele>503</ele>
        <time>2020-10-12T11:27:13+02:00</time>
      </trkpt>
      <trkpt lat="44.64316" lon="4.458">
        <ele>501</ele>
        <time>2020-10-12T11:27:18+02:00</time>
      </trkpt>
      <trkpt lat="44.64305" lon="4.45815">
        <ele>500</ele>
        <time>2020-10-12T11:27:23+02:00</time>
      </trkpt>
      <trkpt lat="44.64289" lon="4.45827">
        <ele>500</ele>
        <time>2020-10-12T11:27:28+02:00</time>
      </trkpt>
      <trkpt lat="44.64222" lon="4.45869">
        <ele>495</ele>
        <time>2020-10-12T11:27:33+02:00</time>
      </trkpt>
      <trkpt lat="44.64187" lon="4.45891">
        <ele>491</ele>
        <time>2020-10-12T11:27:38+02:00</time>
      </trkpt>
      <trkpt lat="44.64167" lon="4.4588">
        <ele>493</ele>
        <time>2020-10-12T11:27:43+02:00</time>
      </trkpt>
      <trkpt lat="44.64113" lon="4.45846">
        <ele>490</ele>
        <time>2020-10-12T11:27:48+02:00</time>
      </trkpt>
      <trkpt lat="44.64098" lon="4.45822">
        <ele>490</ele>
        <time>2020-10-12T11:27:53+02:00</time>
      </trkpt>
      <trkpt lat="44.64087" lon="4.45775">
        <ele>492</ele>
        <time>2020-10-12T11:27:58+02:00</time>
      </trkpt>
      <trkpt lat="44.64083" lon="4.45734">
        <ele>495</ele>
        <time>2020-10-12T11:28:03+02:00</time>
      </trkpt>
      <trkpt lat="44.64032" lon="4.45639">
        <ele>490</ele>
        <time>2020-10-12T11:28:08+02:00</time>
      </trkpt>
      <trkpt lat="44.64013" lon="4.45636">
        <ele>486</ele>
        <time>2020-10-12T11:28:13+02:00</time>
      </trkpt>
      <trkpt lat="44.63994" lon="4.45626">
        <ele>483</ele>
        <time>2020-10-12T11:28:18+02:00</time>
      </trkpt>
      <trkpt lat="44.63978" lon="4.4561">
        <ele>480</ele>
        <time>2020-10-12T11:28:23+02:00</time>
      </trkpt>
      <trkpt lat="44.63974" lon="4.456">
        <ele>480</ele>
        <time>2020-10-12T11:28:28+02:00</time>
      </trkpt>
      <trkpt lat="44.63972" lon="4.45547">
        <ele>477</ele>
        <time>2020-10-12T11:28:33+02:00</time>
      </trkpt>
      <trkpt lat="44.63971" lon="4.45497">
        <ele>473</ele>
        <time>2020-10-12T11:28:38+02:00</time>
      </trkpt>
      <trkpt lat="44.63968" lon="4.45423">
        <ele>466</ele>
        <time>2020-10-12T11:28:43+02:00</time>
      </trkpt>
      <trkpt lat="44.63978" lon="4.45385">
        <ele>464</ele>
        <time>2020-10-12T11:28:48+02:00</time>
      </trkpt>
      <trkpt lat="44.63993" lon="4.45354">
        <ele>464</ele>
        <time>2020-10-12T11:28:53+02:00</time>
      </trkpt>
      <trkpt lat="44.64006" lon="4.45329">
        <ele>465</ele>
        <time>2020-10-12T11:28:58+02:00</time>
      </trkpt>
      <trkpt lat="44.64023" lon="4.45304">
        <ele>467</ele>
        <time>2020-10-12T11:29:03+02:00</time>
      </trkpt>
      <trkpt lat="44.6402" lon="4.45257">
        <ele>464</ele>
        <time>2020-10-12T11:29:08+02:00</time>
      </trkpt>
      <trkpt lat="44.64032" lon="4.45206">
        <ele>462</ele>
        <time>2020-10-12T11:29:13+02:00</time>
      </trkpt>
      <trkpt lat="44.64043" lon="4.45184">
        <ele>461</ele>
        <time>2020-10-12T11:29:18+02:00</time>
      </trkpt>
      <trkpt lat="44.64028" lon="4.45163">
        <ele>460</ele>
        <time>2020-10-12T11:29:23+02:00</time>
      </trkpt>
      <trkpt lat="44.64033" lon="4.45188">
        <ele>461</ele>
        <time>2020-10-12T11:29:28+02:00</time>
      </trkpt>
      <trkpt lat="44.64017" lon="4.45208">
        <ele>462</ele>
        <time>2020-10-12T11:29:33+02:00</time>
      </trkpt>
      <trkpt lat="44.64004" lon="4.45217">
        <ele>461</ele>
        <time>2020-10-12T11:29:38+02:00</time>
      </trkpt>
      <trkpt lat="44.63991" lon="4.45231">
        <ele>459</ele>
        <time>2020-10-12T11:29:43+02:00</time>
      </trkpt>
      <trkpt lat="44.63985" lon="4.4526">
        <ele>458</ele>
        <time>2020-10-12T11:29:48+02:00</time>
      </trkpt>
      <trkpt lat="44.6398" lon="4.45278">
        <ele>458</ele>
        <time>2020-10-12T11:29:53+02:00</time>
      </trkpt>
      <trkpt lat="44.63973" lon="4.45297">
        <ele>457</ele>
        <time>2020-10-12T11:29:58+02:00</time>
      </trkpt>
      <trkpt lat="44.63867" lon="4.45411">
        <ele>447</ele>
        <time>2020-10-12T11:30:03+02:00</time>
      </trkpt>
      <trkpt lat="44.63845" lon="4.45416">
        <ele>445</ele>
        <time>2020-10-12T11:30:08+02:00</time>
      </trkpt>
      <trkpt lat="44.63811" lon="4.45411">
        <ele>442</ele>
        <time>2020-10-12T11:30:13+02:00</time>
      </trkpt>
      <trkpt lat="44.63797" lon="4.45411">
        <ele>442</ele>
        <time>2020-10-12T11:30:18+02:00</time>
      </trkpt>
      <trkpt lat="44.63781" lon="4.45413">
        <ele>443</ele>
        <time>2020-10-12T11:30:23+02:00</time>
      </trkpt>
      <trkpt lat="44.63756" lon="4.45397">
        <ele>440</ele>
        <time>2020-10-12T11:30:28+02:00</time>
      </trkpt>
      <trkpt lat="44.6368" lon="4.45342">
        <ele>432</ele>
        <time>2020-10-12T11:30:33+02:00</time>
      </trkpt>
      <trkpt lat="44.63668" lon="4.45366">
        <ele>436</ele>
        <time>2020-10-12T11:30:38+02:00</time>
      </trkpt>
      <trkpt lat="44.63663" lon="4.45388">
        <ele>438</ele>
        <time>2020-10-12T11:30:43+02:00</time>
      </trkpt>
      <trkpt lat="44.63658" lon="4.45404">
        <ele>439</ele>
        <time>2020-10-12T11:30:48+02:00</time>
      </trkpt>
      <trkpt lat="44.6365" lon="4.4542">
        <ele>440</ele>
        <time>2020-10-12T11:30:53+02:00</time>
      </trkpt>
      <trkpt lat="44.63639" lon="4.45435">
        <ele>439</ele>
        <time>2020-10-12T11:30:58+02:00</time>
      </trkpt>
      <trkpt lat="44.63626" lon="4.4546">
        <ele>439</ele>
        <time>2020-10-12T11:31:03+02:00</time>
      </trkpt>
      <trkpt lat="44.63607" lon="4.45463">
        <ele>437</ele>
        <time>2020-10-12T11:31:08+02:00</time>
      </trkpt>
      <trkpt lat="44.6358" lon="4.45461">
        <ele>435</ele>
        <time>2020-10-12T11:31:13+02:00</time>
      </trkpt>
      <trkpt lat="44.63554" lon="4.4545">
        <ele>432</ele>
        <time>2020-10-12T11:31:18+02:00</time>
      </trkpt>
      <trkpt lat="44.63537" lon="4.45441">
        <ele>430</ele>
        <time>2020-10-12T11:31:23+02:00</time>
      </trkpt>
      <trkpt lat="44.63523" lon="4.45431">
        <ele>428</ele>
        <time>2020-10-12T11:31:28+02:00</time>
      </trkpt>
      <trkpt lat="44.63507" lon="4.45399">
        <ele>426</ele>
        <time>2020-10-12T11:31:33+02:00</time>
      </trkpt>
      <trkpt lat="44.6349" lon="4.45355">
        <ele>425</ele>
        <time>2020-10-12T11:31:38+02:00</time>
      </trkpt>
      <trkpt lat="44.63478" lon="4.45351">
        <ele>424</ele>
        <time>2020-10-12T11:31:43+02:00</time>
      </trkpt>
      <trkpt lat="44.63466" lon="4.45356">
        <ele>423</ele>
        <time>2020-10-12T11:31:48+02:00</time>
      </trkpt>
      <trkpt lat="44.63448" lon="4.45365">
        <ele>423</ele>
        <time>2020-10-12T11:31:53+02:00</time>
      </trkpt>
      <trkpt lat="44.63426" lon="4.45348">
        <ele>420</ele>
        <time>2020-10-12T11:31:58+02:00</time>
      </trkpt>
      <trkpt lat="44.63405" lon="4.45327">
        <ele>418</ele>
        <time>2020-10-12T11:32:03+02:00</time>
      </trkpt>
      <trkpt lat="44.63393" lon="4.45328">
        <ele>417</ele>
        <time>2020-10-12T11:32:08+02:00</time>
      </trkpt>
      <trkpt lat="44.63366" lon="4.45333">
        <ele>416</ele>
        <time>2020-10-12T11:32:13+02:00</time>
      </trkpt>
      <trkpt lat="44.63322" lon="4.45326">
        <ele>413</ele>
        <time>2020-10-12T11:32:18+02:00</time>
      </trkpt>
      <trkpt lat="44.63293" lon="4.45325">
        <ele>412</ele>
        <time>2020-10-12T11:32:23+02:00</time>
      </trkpt>
      <trkpt lat="44.63276" lon="4.45324">
        <ele>411</ele>
        <time>2020-10-12T11:32:28+02:00</time>
      </trkpt>
      <trkpt lat="44.63268" lon="4.4532">
        <ele>410</ele>
        <time>2020-10-12T11:32:33+02:00</time>
      </trkpt>
      <trkpt lat="44.6326" lon="4.45299">
        <ele>408</ele>
        <time>2020-10-12T11:32:38+02:00</time>
      </trkpt>
      <trkpt lat="44.63254" lon="4.45287">
        <ele>407</ele>
        <time>2020-10-12T11:32:43+02:00</time>
      </trkpt>
      <trkpt lat="44.63226" lon="4.45277">
        <ele>405</ele>
        <time>2020-10-12T11:32:48+02:00</time>
      </trkpt>
      <trkpt lat="44.6321" lon="4.45273">
        <ele>404</ele>
        <time>2020-10-12T11:32:53+02:00</time>
      </trkpt>
      <trkpt lat="44.632" lon="4.45272">
        <ele>404</ele>
        <time>2020-10-12T11:32:58+02:00</time>
      </trkpt>
      <trkpt lat="44.6318" lon="4.45277">
        <ele>404</ele>
        <time>2020-10-12T11:33:03+02:00</time>
      </trkpt>
      <trkpt lat="44.63158" lon="4.45279">
        <ele>403</ele>
        <time>2020-10-12T11:33:08+02:00</time>
      </trkpt>
      <trkpt lat="44.63131" lon="4.45288">
        <ele>401</ele>
        <time>2020-10-12T11:33:13+02:00</time>
      </trkpt>
      <trkpt lat="44.63106" lon="4.45301">
        <ele>399</ele>
        <time>2020-10-12T11:33:18+02:00</time>
      </trkpt>
      <trkpt lat="44.6309" lon="4.45296">
        <ele>398</ele>
        <time>2020-10-12T11:33:23+02:00</time>
      </trkpt>
      <trkpt lat="44.63081" lon="4.45309">
        <ele>397</ele>
        <time>2020-10-12T11:33:28+02:00</time>
      </trkpt>
      <trkpt lat="44.63068" lon="4.45323">
        <ele>395</ele>
        <time>2020-10-12T11:33:33+02:00</time>
      </trkpt>
      <trkpt lat="44.63056" lon="4.45327">
        <ele>393</ele>
        <time>2020-10-12T11:33:38+02:00</time>
      </trkpt>
      <trkpt lat="44.63042" lon="4.45341">
        <ele>391</ele>
        <time>2020-10-12T11:33:43+02:00</time>
      </trkpt>
      <trkpt lat="44.63028" lon="4.45351">
        <ele>389</ele>
        <time>2020-10-12T11:33:48+02:00</time>
      </trkpt>
      <trkpt lat="44.63017" lon="4.45354">
        <ele>388</ele>
        <time>2020-10-12T11:33:53+02:00</time>
      </trkpt>
      <trkpt lat="44.63003" lon="4.45365">
        <ele>386</ele>
        <time>2020-10-12T11:33:58+02:00</time>
      </trkpt>
      <trkpt lat="44.62987" lon="4.45376">
        <ele>384</ele>
        <time>2020-10-12T11:34:03+02:00</time>
      </trkpt>
      <trkpt lat="44.62956" lon="4.4539">
        <ele>380</ele>
        <time>2020-10-12T11:34:08+02:00</time>
      </trkpt>
      <trkpt lat="44.62907" lon="4.4541">
        <ele>375</ele>
        <time>2020-10-12T11:34:13+02:00</time>
      </trkpt>
      <trkpt lat="44.62876" lon="4.45429">
        <ele>371</ele>
        <time>2020-10-12T11:34:18+02:00</time>
      </trkpt>
      <trkpt lat="44.62868" lon="4.45455">
        <ele>369</ele>
        <time>2020-10-12T11:34:23+02:00</time>
      </trkpt>
      <trkpt lat="44.62866" lon="4.45488">
        <ele>367</ele>
        <time>2020-10-12T11:34:28+02:00</time>
      </trkpt>
      <trkpt lat="44.62869" lon="4.45521">
        <ele>365</ele>
        <time>2020-10-12T11:34:33+02:00</time>
      </trkpt>
      <trkpt lat="44.62879" lon="4.45543">
        <ele>363</ele>
        <time>2020-10-12T11:34:38+02:00</time>
      </trkpt>
      <trkpt lat="44.62895" lon="4.4558">
        <ele>361</ele>
        <time>2020-10-12T11:34:43+02:00</time>
      </trkpt>
      <trkpt lat="44.62907" lon="4.45597">
        <ele>361</ele>
        <time>2020-10-12T11:34:48+02:00</time>
      </trkpt>
      <trkpt lat="44.62913" lon="4.45616">
        <ele>359</ele>
        <time>2020-10-12T11:34:53+02:00</time>
      </trkpt>
      <trkpt lat="44.6292" lon="4.45641">
        <ele>358</ele>
        <time>2020-10-12T11:34:58+02:00</time>
      </trkpt>
      <trkpt lat="44.62922" lon="4.45666">
        <ele>356</ele>
        <time>2020-10-12T11:35:03+02:00</time>
      </trkpt>
      <trkpt lat="44.62924" lon="4.45691">
        <ele>355</ele>
        <time>2020-10-12T11:35:08+02:00</time>
      </trkpt>
      <trkpt lat="44.62919" lon="4.45705">
        <ele>353</ele>
        <time>2020-10-12T11:35:13+02:00</time>
      </trkpt>
      <trkpt lat="44.62935" lon="4.45726">
        <ele>354</ele>
        <time>2020-10-12T11:35:18+02:00</time>
      </trkpt>
      <trkpt lat="44.62959" lon="4.45749">
        <ele>354</ele>
        <time>2020-10-12T11:35:23+02:00</time>
      </trkpt>
      <trkpt lat="44.62975" lon="4.45749">
        <ele>355</ele>
        <time>2020-10-12T11:35:28+02:00</time>
      </trkpt>
      <trkpt lat="44.62992" lon="4.45766">
        <ele>356</ele>
        <time>2020-10-12T11:35:33+02:00</time>
      </trkpt>
      <trkpt lat="44.62991" lon="4.45788">
        <ele>355</ele>
        <time>2020-10-12T11:35:38+02:00</time>
      </trkpt>
      <trkpt lat="44.62995" lon="4.45816">
        <ele>354</ele>
        <time>2020-10-12T11:35:43+02:00</time>
      </trkpt>
      <trkpt lat="44.63027" lon="4.4585">
        <ele>356</ele>
        <time>2020-10-12T11:35:48+02:00</time>
      </trkpt>
      <trkpt lat="44.63053" lon="4.45884">
        <ele>356</ele>
        <time>2020-10-12T11:35:53+02:00</time>
      </trkpt>
      <trkpt lat="44.63073" lon="4.459">
        <ele>356</ele>
        <time>2020-10-12T11:35:58+02:00</time>
      </trkpt>
      <trkpt lat="44.6309" lon="4.45913">
        <ele>357</ele>
        <time>2020-10-12T11:36:03+02:00</time>
      </trkpt>
      <trkpt lat="44.63112" lon="4.45923">
        <ele>358</ele>
        <time>2020-10-12T11:36:08+02:00</time>
      </trkpt>
      <trkpt lat="44.63142" lon="4.45925">
        <ele>360</ele>
        <time>2020-10-12T11:36:13+02:00</time>
      </trkpt>
      <trkpt lat="44.63161" lon="4.45916">
        <ele>362</ele>
        <time>2020-10-12T11:36:18+02:00</time>
      </trkpt>
      <trkpt lat="44.63182" lon="4.45926">
        <ele>362</ele>
        <time>2020-10-12T11:36:23+02:00</time>
      </trkpt>
      <trkpt lat="44.63193" lon="4.45936">
        <ele>362</ele>
        <time>2020-10-12T11:36:28+02:00</time>
      </trkpt>
      <trkpt lat="44.63208" lon="4.45958">
        <ele>362</ele>
        <time>2020-10-12T11:36:33+02:00</time>
      </trkpt>
      <trkpt lat="44.63221" lon="4.45981">
        <ele>361</ele>
        <time>2020-10-12T11:36:38+02:00</time>
      </trkpt>
      <trkpt lat="44.63237" lon="4.45997">
        <ele>361</ele>
        <time>2020-10-12T11:36:43+02:00</time>
      </trkpt>
      <trkpt lat="44.63255" lon="4.46026">
        <ele>356</ele>
        <time>2020-10-12T11:36:48+02:00</time>
      </trkpt>
      <trkpt lat="44.6328" lon="4.46052">
        <ele>351</ele>
        <time>2020-10-12T11:36:53+02:00</time>
      </trkpt>
      <trkpt lat="44.63301" lon="4.46064">
        <ele>348</ele>
        <time>2020-10-12T11:36:58+02:00</time>
      </trkpt>
      <trkpt lat="44.63319" lon="4.46068">
        <ele>347</ele>
        <time>2020-10-12T11:37:03+02:00</time>
      </trkpt>
      <trkpt lat="44.63332" lon="4.46068">
        <ele>347</ele>
        <time>2020-10-12T11:37:08+02:00</time>
      </trkpt>
      <trkpt lat="44.63345" lon="4.46075">
        <ele>345</ele>
        <time>2020-10-12T11:37:13+02:00</time>
      </trkpt>
      <trkpt lat="44.63366" lon="4.46074">
        <ele>345</ele>
        <time>2020-10-12T11:37:18+02:00</time>
      </trkpt>
      <trkpt lat="44.63383" lon="4.46067">
        <ele>347</ele>
        <time>2020-10-12T11:37:23+02:00</time>
      </trkpt>
      <trkpt lat="44.63396" lon="4.46064">
        <ele>348</ele>
        <time>2020-10-12T11:37:28+02:00</time>
      </trkpt>
      <trkpt lat="44.63414" lon="4.46076">
        <ele>345</ele>
        <time>2020-10-12T11:37:33+02:00</time>
      </trkpt>
      <trkpt lat="44.63423" lon="4.46094">
        <ele>342</ele>
        <time>2020-10-12T11:37:38+02:00</time>
      </trkpt>
      <trkpt lat="44.63425" lon="4.46105">
        <ele>341</ele>
        <time>2020-10-12T11:37:43+02:00</time>
      </trkpt>
      <trkpt lat="44.63424" lon="4.46126">
        <ele>339</ele>
        <time>2020-10-12T11:37:48+02:00</time>
      </trkpt>
      <trkpt lat="44.6343" lon="4.46142">
        <ele>337</ele>
        <time>2020-10-12T11:37:53+02:00</time>
      </trkpt>
      <trkpt lat="44.63437" lon="4.46153">
        <ele>336</ele>
        <time>2020-10-12T11:37:58+02:00</time>
      </trkpt>
      <trkpt lat="44.63454" lon="4.46168">
        <ele>335</ele>
        <time>2020-10-12T11:38:03+02:00</time>
      </trkpt>
      <trkpt lat="44.63471" lon="4.46149">
        <ele>337</ele>
        <time>2020-10-12T11:38:08+02:00</time>
      </trkpt>
      <trkpt lat="44.63472" lon="4.46174">
        <ele>336</ele>
        <time>2020-10-12T11:38:13+02:00</time>
      </trkpt>
      <trkpt lat="44.63463" lon="4.46187">
        <ele>339</ele>
        <time>2020-10-12T11:38:18+02:00</time>
      </trkpt>
      <trkpt lat="44.63469" lon="4.46217">
        <ele>346</ele>
        <time>2020-10-12T11:38:23+02:00</time>
      </trkpt>
      <trkpt lat="44.63478" lon="4.46239">
        <ele>350</ele>
        <time>2020-10-12T11:38:28+02:00</time>
      </trkpt>
      <trkpt lat="44.63496" lon="4.46255">
        <ele>354</ele>
        <time>2020-10-12T11:38:33+02:00</time>
      </trkpt>
      <trkpt lat="44.63513" lon="4.46257">
        <ele>353</ele>
        <time>2020-10-12T11:38:38+02:00</time>
      </trkpt>
      <trkpt lat="44.63535" lon="4.46261">
        <ele>352</ele>
        <time>2020-10-12T11:38:43+02:00</time>
      </trkpt>
      <trkpt lat="44.6356" lon="4.46271">
        <ele>353</ele>
        <time>2020-10-12T11:38:48+02:00</time>
      </trkpt>
      <trkpt lat="44.63583" lon="4.4628">
        <ele>355</ele>
        <time>2020-10-12T11:38:53+02:00</time>
      </trkpt>
      <trkpt lat="44.63603" lon="4.46286">
        <ele>357</ele>
        <time>2020-10-12T11:38:58+02:00</time>
      </trkpt>
      <trkpt lat="44.63617" lon="4.4629">
        <ele>358</ele>
        <time>2020-10-12T11:39:03+02:00</time>
      </trkpt>
      <trkpt lat="44.63631" lon="4.46291">
        <ele>358</ele>
        <time>2020-10-12T11:39:08+02:00</time>
      </trkpt>
      <trkpt lat="44.63667" lon="4.4629">
        <ele>357</ele>
        <time>2020-10-12T11:39:13+02:00</time>
      </trkpt>
      <trkpt lat="44.63693" lon="4.46281">
        <ele>353</ele>
        <time>2020-10-12T11:39:18+02:00</time>
      </trkpt>
      <trkpt lat="44.63713" lon="4.46288">
        <ele>352</ele>
        <time>2020-10-12T11:39:23+02:00</time>
      </trkpt>
      <trkpt lat="44.63717" lon="4.46321">
        <ele>356</ele>
        <time>2020-10-12T11:39:28+02:00</time>
      </trkpt>
      <trkpt lat="44.63712" lon="4.46356">
        <ele>361</ele>
        <time>2020-10-12T11:39:33+02:00</time>
      </trkpt>
      <trkpt lat="44.63712" lon="4.46386">
        <ele>364</ele>
        <time>2020-10-12T11:39:38+02:00</time>
      </trkpt>
      <trkpt lat="44.63709" lon="4.46415">
        <ele>367</ele>
        <time>2020-10-12T11:39:43+02:00</time>
      </trkpt>
      <trkpt lat="44.63699" lon="4.46517">
        <ele>374</ele>
        <time>2020-10-12T11:39:48+02:00</time>
      </trkpt>
      <trkpt lat="44.63692" lon="4.46551">
        <ele>379</ele>
        <time>2020-10-12T11:39:53+02:00</time>
      </trkpt>
      <trkpt lat="44.63685" lon="4.46576">
        <ele>383</ele>
        <time>2020-10-12T11:39:58+02:00</time>
      </trkpt>
      <trkpt lat="44.63676" lon="4.46611">
        <ele>389</ele>
        <time>2020-10-12T11:40:03+02:00</time>
      </trkpt>
      <trkpt lat="44.63663" lon="4.46668">
        <ele>397</ele>
        <time>2020-10-12T11:40:08+02:00</time>
      </trkpt>
      <trkpt lat="44.6366" lon="4.467">
        <ele>399</ele>
        <time>2020-10-12T11:40:13+02:00</time>
      </trkpt>
      <trkpt lat="44.63673" lon="4.46733">
        <ele>399</ele>
        <time>2020-10-12T11:40:18+02:00</time>
      </trkpt>
      <trkpt lat="44.63686" lon="4.46762">
        <ele>397</ele>
        <time>2020-10-12T11:40:23+02:00</time>
      </trkpt>
      <trkpt lat="44.63706" lon="4.46808">
        <ele>395</ele>
        <time>2020-10-12T11:40:28+02:00</time>
      </trkpt>
      <trkpt lat="44.63714" lon="4.46841">
        <ele>396</ele>
        <time>2020-10-12T11:40:33+02:00</time>
      </trkpt>
      <trkpt lat="44.63717" lon="4.46872">
        <ele>398</ele>
        <time>2020-10-12T11:40:38+02:00</time>
      </trkpt>
      <trkpt lat="44.63743" lon="4.46995">
        <ele>407</ele>
        <time>2020-10-12T11:40:43+02:00</time>
      </trkpt>
      <trkpt lat="44.63772" lon="4.46983">
        <ele>404</ele>
        <time>2020-10-12T11:40:48+02:00</time>
      </trkpt>
      <trkpt lat="44.63815" lon="4.46977">
        <ele>400</ele>
        <time>2020-10-12T11:40:53+02:00</time>
      </trkpt>
      <trkpt lat="44.63773" lon="4.46983">
        <ele>404</ele>
        <time>2020-10-12T11:40:58+02:00</time>
      </trkpt>
      <trkpt lat="44.63743" lon="4.46995">
        <ele>407</ele>
        <time>2020-10-12T11:41:03+02:00</time>
      </trkpt>
      <trkpt lat="44.63748" lon="4.47043">
        <ele>410</ele>
        <time>2020-10-12T11:41:08+02:00</time>
      </trkpt>
      <trkpt lat="44.6375" lon="4.4707">
        <ele>411</ele>
        <time>2020-10-12T11:41:13+02:00</time>
      </trkpt>
      <trkpt lat="44.63755" lon="4.47087">
        <ele>412</ele>
        <time>2020-10-12T11:41:18+02:00</time>
      </trkpt>
      <trkpt lat="44.63757" lon="4.47106">
        <ele>412</ele>
        <time>2020-10-12T11:41:23+02:00</time>
      </trkpt>
      <trkpt lat="44.63756" lon="4.47135">
        <ele>412</ele>
        <time>2020-10-12T11:41:28+02:00</time>
      </trkpt>
      <trkpt lat="44.63764" lon="4.47178">
        <ele>413</ele>
        <time>2020-10-12T11:41:33+02:00</time>
      </trkpt>
      <trkpt lat="44.63786" lon="4.47248">
        <ele>414</ele>
        <time>2020-10-12T11:41:38+02:00</time>
      </trkpt>
      <trkpt lat="44.63788" lon="4.47266">
        <ele>414</ele>
        <time>2020-10-12T11:41:43+02:00</time>
      </trkpt>
      <trkpt lat="44.63796" lon="4.47294">
        <ele>415</ele>
        <time>2020-10-12T11:41:48+02:00</time>
      </trkpt>
      <trkpt lat="44.63799" lon="4.47318">
        <ele>416</ele>
        <time>2020-10-12T11:41:53+02:00</time>
      </trkpt>
      <trkpt lat="44.63798" lon="4.47335">
        <ele>417</ele>
        <time>2020-10-12T11:41:58+02:00</time>
      </trkpt>
      <trkpt lat="44.63793" lon="4.47363">
        <ele>419</ele>
        <time>2020-10-12T11:42:03+02:00</time>
      </trkpt>
      <trkpt lat="44.63794" lon="4.47385">
        <ele>422</ele>
        <time>2020-10-12T11:42:08+02:00</time>
      </trkpt>
      <trkpt lat="44.63796" lon="4.47405">
        <ele>423</ele>
        <time>2020-10-12T11:42:13+02:00</time>
      </trkpt>
      <trkpt lat="44.63795" lon="4.47405">
        <ele>424.3</ele>
      </trkpt>
      <trkpt lat="44.63794" lon="4.47416">
        <ele>425.9</ele>
      </trkpt>
      <trkpt lat="44.63794" lon="4.47418">
        <ele>426.2</ele>
      </trkpt>
      <trkpt lat="44.63793" lon="4.47422">
        <ele>426.7</ele>
      </trkpt>
      <trkpt lat="44.63793" lon="4.47434">
        <ele>428.2</ele>
      </trkpt>
      <trkpt lat="44.63793" lon="4.47441">
        <ele>429.1</ele>
      </trkpt>
      <trkpt lat="44.63793" lon="4.47445">
        <ele>429.6</ele>
      </trkpt>
      <trkpt lat="44.63791" lon="4.4745">
        <ele>430.3</ele>
      </trkpt>
      <trkpt lat="44.6379" lon="4.47452">
        <ele>430.5</ele>
      </trkpt>
      <trkpt lat="44.63788" lon="4.47453">
        <ele>430.6</ele>
      </trkpt>
      <trkpt lat="44.63787" lon="4.47454">
        <ele>430.7</ele>
      </trkpt>
      <trkpt lat="44.6378" lon="4.47457">
        <ele>430.9</ele>
      </trkpt>
      <trkpt lat="44.6377" lon="4.47463">
        <ele>431.4</ele>
      </trkpt>
      <trkpt lat="44.63766" lon="4.47467">
        <ele>431.8</ele>
      </trkpt>
      <trkpt lat="44.63764" lon="4.47469">
        <ele>432</ele>
      </trkpt>
      <trkpt lat="44.63763" lon="4.4747">
        <ele>432.1</ele>
      </trkpt>
      <trkpt lat="44.63761" lon="4.47472">
        <ele>432.4</ele>
      </trkpt>
      <trkpt lat="44.6376" lon="4.47476">
        <ele>432.7</ele>
      </trkpt>
      <trkpt lat="44.63759" lon="4.4748">
        <ele>433</ele>
      </trkpt>
      <trkpt lat="44.63759" lon="4.47487">
        <ele>433.6</ele>
      </trkpt>
      <trkpt lat="44.63758" lon="4.47494">
        <ele>434.1</ele>
      </trkpt>
      <trkpt lat="44.63756" lon="4.47501">
        <ele>434.4</ele>
      </trkpt>
      <trkpt lat="44.63752" lon="4.47519">
        <ele>434.2</ele>
      </trkpt>
      <trkpt lat="44.63751" lon="4.47532">
        <ele>434.1</ele>
      </trkpt>
      <trkpt lat="44.63751" lon="4.4754">
        <ele>434.1</ele>
      </trkpt>
      <trkpt lat="44.63751" lon="4.47549">
        <ele>434.1</ele>
      </trkpt>
      <trkpt lat="44.63751" lon="4.47563">
        <ele>434.4</ele>
      </trkpt>
      <trkpt lat="44.63751" lon="4.4757">
        <ele>434.6</ele>
      </trkpt>
      <trkpt lat="44.6375" lon="4.47576">
        <ele>434.7</ele>
      </trkpt>
      <trkpt lat="44.63749" lon="4.47583">
        <ele>434.8</ele>
      </trkpt>
      <trkpt lat="44.63747" lon="4.47589">
        <ele>435</ele>
      </trkpt>
      <trkpt lat="44.63745" lon="4.47594">
        <ele>435</ele>
      </trkpt>
      <trkpt lat="44.63742" lon="4.47601">
        <ele>435.1</ele>
      </trkpt>
      <trkpt lat="44.63739" lon="4.47605">
        <ele>435</ele>
      </trkpt>
      <trkpt lat="44.63735" lon="4.47611">
        <ele>434.8</ele>
      </trkpt>
      <trkpt lat="44.63726" lon="4.47622">
        <ele>435.1</ele>
      </trkpt>
      <trkpt lat="44.6372" lon="4.47631">
        <ele>435.6</ele>
      </trkpt>
      <trkpt lat="44.63716" lon="4.47636">
        <ele>435.9</ele>
      </trkpt>
      <trkpt lat="44.63713" lon="4.47643">
        <ele>436.7</ele>
      </trkpt>
      <trkpt lat="44.63711" lon="4.47649">
        <ele>437.5</ele>
      </trkpt>
      <trkpt lat="44.63708" lon="4.47655">
        <ele>438.1</ele>
      </trkpt>
      <trkpt lat="44.63705" lon="4.47661">
        <ele>438.4</ele>
      </trkpt>
      <trkpt lat="44.63702" lon="4.47665">
        <ele>438.4</ele>
      </trkpt>
      <trkpt lat="44.63698" lon="4.47668">
        <ele>438.2</ele>
      </trkpt>
      <trkpt lat="44.63694" lon="4.47671">
        <ele>438.6</ele>
      </trkpt>
      <trkpt lat="44.6369" lon="4.47672">
        <ele>439.1</ele>
      </trkpt>
      <trkpt lat="44.63687" lon="4.47673">
        <ele>439.6</ele>
      </trkpt>
      <trkpt lat="44.63683" lon="4.47673">
        <ele>439.7</ele>
      </trkpt>
      <trkpt lat="44.63679" lon="4.47673">
        <ele>439.9</ele>
      </trkpt>
      <trkpt lat="44.63676" lon="4.47672">
        <ele>439.7</ele>
      </trkpt>
      <trkpt lat="44.63671" lon="4.47672">
        <ele>440</ele>
      </trkpt>
      <trkpt lat="44.63666" lon="4.47672">
        <ele>440.1</ele>
      </trkpt>
      <trkpt lat="44.63662" lon="4.47673">
        <ele>440</ele>
      </trkpt>
      <trkpt lat="44.63659" lon="4.47675">
        <ele>440.2</ele>
      </trkpt>
      <trkpt lat="44.63654" lon="4.47678">
        <ele>440.3</ele>
      </trkpt>
      <trkpt lat="44.6365" lon="4.47683">
        <ele>441</ele>
      </trkpt>
      <trkpt lat="44.63645" lon="4.47689">
        <ele>441.6</ele>
      </trkpt>
      <trkpt lat="44.63641" lon="4.47694">
        <ele>442.1</ele>
      </trkpt>
      <trkpt lat="44.63637" lon="4.47702">
        <ele>443.1</ele>
      </trkpt>
      <trkpt lat="44.6363" lon="4.47715">
        <ele>444.2</ele>
      </trkpt>
      <trkpt lat="44.63623" lon="4.47729">
        <ele>445.3</ele>
      </trkpt>
      <trkpt lat="44.63618" lon="4.47736">
        <ele>445.6</ele>
      </trkpt>
      <trkpt lat="44.63615" lon="4.47741">
        <ele>446</ele>
      </trkpt>
      <trkpt lat="44.6361" lon="4.47745">
        <ele>446</ele>
      </trkpt>
      <trkpt lat="44.63608" lon="4.47748">
        <ele>446.4</ele>
      </trkpt>
      <trkpt lat="44.63602" lon="4.47752">
        <ele>446.8</ele>
      </trkpt>
      <trkpt lat="44.63604" lon="4.47752">
        <ele>447</ele>
      </trkpt>
      <trkpt lat="44.63609" lon="4.47752">
        <ele>447.3</ele>
      </trkpt>
      <trkpt lat="44.63614" lon="4.47751">
        <ele>447.7</ele>
      </trkpt>
      <trkpt lat="44.6362" lon="4.47747">
        <ele>447.8</ele>
      </trkpt>
      <trkpt lat="44.63626" lon="4.47742">
        <ele>447.9</ele>
      </trkpt>
      <trkpt lat="44.63636" lon="4.47736">
        <ele>448.5</ele>
      </trkpt>
      <trkpt lat="44.6364" lon="4.47734">
        <ele>448.8</ele>
      </trkpt>
      <trkpt lat="44.63643" lon="4.47733">
        <ele>448.8</ele>
      </trkpt>
      <trkpt lat="44.63644" lon="4.47734">
        <ele>449</ele>
      </trkpt>
      <trkpt lat="44.63645" lon="4.47735">
        <ele>449.3</ele>
      </trkpt>
      <trkpt lat="44.63646" lon="4.47737">
        <ele>449.7</ele>
      </trkpt>
      <trkpt lat="44.63647" lon="4.47739">
        <ele>450.1</ele>
      </trkpt>
      <trkpt lat="44.63647" lon="4.47741">
        <ele>450.4</ele>
      </trkpt>
      <trkpt lat="44.63647" lon="4.47743">
        <ele>450.7</ele>
      </trkpt>
      <trkpt lat="44.63647" lon="4.47746">
        <ele>451.2</ele>
      </trkpt>
      <trkpt lat="44.63645" lon="4.4775">
        <ele>451.7</ele>
      </trkpt>
      <trkpt lat="44.63641" lon="4.47753">
        <ele>452</ele>
      </trkpt>
      <trkpt lat="44.63632" lon="4.47758">
        <ele>452</ele>
      </trkpt>
      <trkpt lat="44.63621" lon="4.47768">
        <ele>453</ele>
      </trkpt>
      <trkpt lat="44.63604" lon="4.47785">
        <ele>454.8</ele>
      </trkpt>
      <trkpt lat="44.63586" lon="4.47801">
        <ele>456.3</ele>
      </trkpt>
      <trkpt lat="44.6357" lon="4.47815">
        <ele>458.3</ele>
      </trkpt>
      <trkpt lat="44.63552" lon="4.47835">
        <ele>460.8</ele>
      </trkpt>
      <trkpt lat="44.63531" lon="4.47861">
        <ele>462.6</ele>
      </trkpt>
      <trkpt lat="44.63527" lon="4.47866">
        <ele>463</ele>
      </trkpt>
      <trkpt lat="44.63513" lon="4.47887">
        <ele>466</ele>
      </trkpt>
      <trkpt lat="44.63503" lon="4.47901">
        <ele>467</ele>
      </trkpt>
      <trkpt lat="44.63497" lon="4.47912">
        <ele>467.9</ele>
      </trkpt>
      <trkpt lat="44.63493" lon="4.47925">
        <ele>468.6</ele>
      </trkpt>
      <trkpt lat="44.63491" lon="4.47935">
        <ele>469</ele>
      </trkpt>
      <trkpt lat="44.63492" lon="4.47942">
        <ele>469.7</ele>
      </trkpt>
      <trkpt lat="44.63492" lon="4.47948">
        <ele>469.9</ele>
      </trkpt>
      <trkpt lat="44.63493" lon="4.47956">
        <ele>470.3</ele>
      </trkpt>
      <trkpt lat="44.63495" lon="4.47962">
        <ele>470.8</ele>
      </trkpt>
      <trkpt lat="44.63499" lon="4.4798">
        <ele>472.1</ele>
      </trkpt>
      <trkpt lat="44.63512" lon="4.48024">
        <ele>474.7</ele>
      </trkpt>
      <trkpt lat="44.63524" lon="4.48062">
        <ele>477.3</ele>
      </trkpt>
      <trkpt lat="44.63528" lon="4.48076">
        <ele>478.8</ele>
      </trkpt>
      <trkpt lat="44.63531" lon="4.48092">
        <ele>479.9</ele>
      </trkpt>
      <trkpt lat="44.63537" lon="4.4813">
        <ele>480</ele>
      </trkpt>
      <trkpt lat="44.6354" lon="4.48139">
        <ele>480.1</ele>
      </trkpt>
      <trkpt lat="44.63542" lon="4.48144">
        <ele>480.6</ele>
      </trkpt>
      <trkpt lat="44.63545" lon="4.48146">
        <ele>481.5</ele>
      </trkpt>
      <trkpt lat="44.63547" lon="4.48146">
        <ele>482</ele>
      </trkpt>
      <trkpt lat="44.6355" lon="4.48145">
        <ele>482.9</ele>
      </trkpt>
      <trkpt lat="44.63552" lon="4.48142">
        <ele>483.3</ele>
      </trkpt>
      <trkpt lat="44.63553" lon="4.48139">
        <ele>483.4</ele>
      </trkpt>
      <trkpt lat="44.63553" lon="4.48135">
        <ele>483.6</ele>
      </trkpt>
      <trkpt lat="44.63552" lon="4.48124">
        <ele>484.2</ele>
      </trkpt>
      <trkpt lat="44.6355" lon="4.48109">
        <ele>484.7</ele>
      </trkpt>
      <trkpt lat="44.63549" lon="4.481">
        <ele>484.7</ele>
      </trkpt>
      <trkpt lat="44.6355" lon="4.48091">
        <ele>485.2</ele>
      </trkpt>
      <trkpt lat="44.63551" lon="4.48081">
        <ele>485.7</ele>
      </trkpt>
      <trkpt lat="44.63553" lon="4.48068">
        <ele>486.7</ele>
      </trkpt>
      <trkpt lat="44.63554" lon="4.48058">
        <ele>487.4</ele>
      </trkpt>
      <trkpt lat="44.6356" lon="4.48039">
        <ele>489.1</ele>
      </trkpt>
      <trkpt lat="44.63567" lon="4.48014">
        <ele>490.3</ele>
      </trkpt>
      <trkpt lat="44.63573" lon="4.47998">
        <ele>491.7</ele>
      </trkpt>
      <trkpt lat="44.63578" lon="4.47987">
        <ele>492.3</ele>
      </trkpt>
      <trkpt lat="44.63583" lon="4.47978">
        <ele>492.7</ele>
      </trkpt>
      <trkpt lat="44.6359" lon="4.47969">
        <ele>493.7</ele>
      </trkpt>
      <trkpt lat="44.63601" lon="4.47958">
        <ele>495.3</ele>
      </trkpt>
      <trkpt lat="44.6361" lon="4.47951">
        <ele>496</ele>
      </trkpt>
      <trkpt lat="44.63624" lon="4.47942">
        <ele>496.9</ele>
      </trkpt>
      <trkpt lat="44.63617" lon="4.47965">
        <ele>500.1</ele>
      </trkpt>
      <trkpt lat="44.63616" lon="4.47994">
        <ele>505.3</ele>
      </trkpt>
      <trkpt lat="44.63618" lon="4.48005">
        <ele>507.7</ele>
      </trkpt>
      <trkpt lat="44.63619" lon="4.48014">
        <ele>509.2</ele>
      </trkpt>
      <trkpt lat="44.63616" lon="4.48036">
        <ele>510.5</ele>
      </trkpt>
      <trkpt lat="44.63616" lon="4.48038">
        <ele>510.7</ele>
      </trkpt>
      <trkpt lat="44.63614" lon="4.48055">
        <ele>511.1</ele>
      </trkpt>
      <trkpt lat="44.63614" lon="4.48056">
        <ele>511.2</ele>
      </trkpt>
      <trkpt lat="44.63614" lon="4.48055">
        <ele>511.1</ele>
      </trkpt>
      <trkpt lat="44.63616" lon="4.48038">
        <ele>510.7</ele>
      </trkpt>
      <trkpt lat="44.6362" lon="4.48048">
        <ele>513</ele>
      </trkpt>
      <trkpt lat="44.63631" lon="4.48042">
        <ele>516.9</ele>
      </trkpt>
      <trkpt lat="44.63657" lon="4.48016">
        <ele>522.3</ele>
      </trkpt>
      <trkpt lat="44.63678" lon="4.4801">
        <ele>526.6</ele>
      </trkpt>
      <trkpt lat="44.63691" lon="4.4801">
        <ele>529.5</ele>
      </trkpt>
      <trkpt lat="44.637" lon="4.48013">
        <ele>532.1</ele>
      </trkpt>
      <trkpt lat="44.63706" lon="4.48014">
        <ele>533.4</ele>
      </trkpt>
      <trkpt lat="44.6372" lon="4.48013">
        <ele>535.3</ele>
      </trkpt>
      <trkpt lat="44.63743" lon="4.48009">
        <ele>534.2</ele>
      </trkpt>
      <trkpt lat="44.63774" lon="4.48017">
        <ele>532.3</ele>
      </trkpt>
      <trkpt lat="44.63798" lon="4.48028">
        <ele>530.7</ele>
      </trkpt>
      <trkpt lat="44.63813" lon="4.48033">
        <ele>528</ele>
      </trkpt>
      <trkpt lat="44.63819" lon="4.48039">
        <ele>527.6</ele>
      </trkpt>
      <trkpt lat="44.63841" lon="4.48067">
        <ele>527</ele>
      </trkpt>
      <trkpt lat="44.63865" lon="4.48099">
        <ele>524.9</ele>
      </trkpt>
      <trkpt lat="44.63878" lon="4.48119">
        <ele>524.8</ele>
      </trkpt>
      <trkpt lat="44.63893" lon="4.48124">
        <ele>522</ele>
      </trkpt>
      <trkpt lat="44.63894" lon="4.48135">
        <ele>522.6</ele>
      </trkpt>
      <trkpt lat="44.63896" lon="4.48145">
        <ele>523.2</ele>
      </trkpt>
      <trkpt lat="44.63898" lon="4.48154">
        <ele>523.8</ele>
      </trkpt>
      <trkpt lat="44.639" lon="4.48161">
        <ele>524.3</ele>
      </trkpt>
      <trkpt lat="44.63905" lon="4.48172">
        <ele>524.9</ele>
      </trkpt>
      <trkpt lat="44.63912" lon="4.48186">
        <ele>525.6</ele>
      </trkpt>
      <trkpt lat="44.63921" lon="4.48206">
        <ele>526.9</ele>
      </trkpt>
      <trkpt lat="44.63927" lon="4.48219">
        <ele>527.7</ele>
      </trkpt>
      <trkpt lat="44.63934" lon="4.48235">
        <ele>528.7</ele>
      </trkpt>
      <trkpt lat="44.63938" lon="4.48243">
        <ele>529.2</ele>
      </trkpt>
      <trkpt lat="44.63942" lon="4.4825">
        <ele>529.4</ele>
      </trkpt>
      <trkpt lat="44.63938" lon="4.4825">
        <ele>530.2</ele>
      </trkpt>
      <trkpt lat="44.63934" lon="4.48249">
        <ele>530.7</ele>
      </trkpt>
      <trkpt lat="44.63927" lon="4.48248">
        <ele>531.9</ele>
      </trkpt>
      <trkpt lat="44.63921" lon="4.48247">
        <ele>532.8</ele>
      </trkpt>
      <trkpt lat="44.63915" lon="4.48248">
        <ele>534.1</ele>
      </trkpt>
      <trkpt lat="44.63909" lon="4.4825">
        <ele>535.7</ele>
      </trkpt>
      <trkpt lat="44.63906" lon="4.4825">
        <ele>536.3</ele>
      </trkpt>
      <trkpt lat="44.63905" lon="4.4825">
        <ele>536.5</ele>
      </trkpt>
      <trkpt lat="44.63902" lon="4.4825">
        <ele>537.2</ele>
      </trkpt>
      <trkpt lat="44.63899" lon="4.48249">
        <ele>537.6</ele>
      </trkpt>
      <trkpt lat="44.63894" lon="4.48246">
        <ele>538.2</ele>
      </trkpt>
      <trkpt lat="44.63886" lon="4.48242">
        <ele>539.2</ele>
      </trkpt>
      <trkpt lat="44.63879" lon="4.48241">
        <ele>540.5</ele>
      </trkpt>
      <trkpt lat="44.63873" lon="4.4824">
        <ele>541.6</ele>
      </trkpt>
      <trkpt lat="44.63864" lon="4.4824">
        <ele>543.6</ele>
      </trkpt>
      <trkpt lat="44.63855" lon="4.48241">
        <ele>546</ele>
      </trkpt>
      <trkpt lat="44.63849" lon="4.48243">
        <ele>547.9</ele>
      </trkpt>
      <trkpt lat="44.63844" lon="4.48247">
        <ele>549.8</ele>
      </trkpt>
      <trkpt lat="44.63839" lon="4.48248">
        <ele>551.3</ele>
      </trkpt>
      <trkpt lat="44.63838" lon="4.48248">
        <ele>551.5</ele>
      </trkpt>
      <trkpt lat="44.63834" lon="4.48248">
        <ele>552.5</ele>
      </trkpt>
      <trkpt lat="44.63832" lon="4.48248">
        <ele>553.2</ele>
      </trkpt>
      <trkpt lat="44.63829" lon="4.48246">
        <ele>554</ele>
      </trkpt>
      <trkpt lat="44.63826" lon="4.48244">
        <ele>554.8</ele>
      </trkpt>
      <trkpt lat="44.63823" lon="4.48241">
        <ele>555.4</ele>
      </trkpt>
      <trkpt lat="44.63819" lon="4.48238">
        <ele>556.4</ele>
      </trkpt>
      <trkpt lat="44.63817" lon="4.48234">
        <ele>556.6</ele>
      </trkpt>
      <trkpt lat="44.63815" lon="4.48231">
        <ele>556.9</ele>
      </trkpt>
      <trkpt lat="44.63814" lon="4.48228">
        <ele>556.8</ele>
      </trkpt>
      <trkpt lat="44.63813" lon="4.4822">
        <ele>556.3</ele>
      </trkpt>
      <trkpt lat="44.63811" lon="4.4822">
        <ele>557</ele>
      </trkpt>
      <trkpt lat="44.63813" lon="4.48201">
        <ele>556.1</ele>
      </trkpt>
      <trkpt lat="44.63815" lon="4.48172">
        <ele>552.5</ele>
      </trkpt>
      <trkpt lat="44.63813" lon="4.48145">
        <ele>551.8</ele>
      </trkpt>
      <trkpt lat="44.63812" lon="4.48121">
        <ele>547.7</ele>
      </trkpt>
      <trkpt lat="44.6381" lon="4.48114">
        <ele>546.8</ele>
      </trkpt>
      <trkpt lat="44.63807" lon="4.48104">
        <ele>545.6</ele>
      </trkpt>
      <trkpt lat="44.63792" lon="4.48077">
        <ele>547.8</ele>
      </trkpt>
      <trkpt lat="44.63774" lon="4.48062">
        <ele>548.8</ele>
      </trkpt>
      <trkpt lat="44.63756" lon="4.48055">
        <ele>551.6</ele>
      </trkpt>
      <trkpt lat="44.63749" lon="4.48056">
        <ele>554.3</ele>
      </trkpt>
      <trkpt lat="44.63744" lon="4.48055">
        <ele>555</ele>
      </trkpt>
      <trkpt lat="44.63741" lon="4.48055">
        <ele>555.6</ele>
      </trkpt>
      <trkpt lat="44.63737" lon="4.48057">
        <ele>557.1</ele>
      </trkpt>
      <trkpt lat="44.63734" lon="4.48058">
        <ele>557.9</ele>
      </trkpt>
      <trkpt lat="44.6373" lon="4.48062">
        <ele>559.3</ele>
      </trkpt>
      <trkpt lat="44.63727" lon="4.4806">
        <ele>559.6</ele>
      </trkpt>
      <trkpt lat="44.63719" lon="4.48058">
        <ele>558.7</ele>
      </trkpt>
    </trkseg>
  </trk>
</gpx>